Time,TemperatureF,DewpointF,PressureIn,WindDirection,WindDirectionDegrees,WindSpeedMPH,WindSpeedGustMPH,Humidity,HourlyPrecipIn,Conditions,Clouds,dailyrainin,SoftwareType,DateUTC
2013-01-13 00:00:00,49.8,36.1,29.77,NE,45,1.1,0.0,59,0.00,RA,,0.00,WeatherDisplay:10.37,2013-01-12 22:00:00,
2013-01-13 00:01:00,49.8,36.1,29.77,NE,45,0.0,0.0,59,0.00,RA,,0.00,WeatherDisplay:10.37,2013-01-12 22:01:00,
2013-01-13 00:02:00,49.6,35.9,29.77,NE,45,1.1,0.0,59,0.00,RA,,0.00,WeatherDisplay:10.37,2013-01-12 22:02:00,
2013-01-13 00:03:00,49.6,35.9,29.77,NE,45,0.0,0.0,59,0.00,RA,,0.00,WeatherDisplay:10.37,2013-01-12 22:03:00,
2013-01-13 00:05:00,49.6,35.9,29.77,NE,45,1.1,1.1,59,0.00,RA,,0.00,WeatherDisplay:10.37,2013-01-12 22:05:00,
2013-01-13 00:06:00,49.6,35.9,29.77,NE,45,1.1,0.0,59,0.00,RA,,0.00,WeatherDisplay:10.37,2013-01-12 22:06:00,
2013-01-13 00:07:00,49.6,35.9,29.77,NE,45,2.0,0.0,59,0.00,RA,,0.00,WeatherDisplay:10.37,2013-01-12 22:07:00,
2013-01-13 00:08:00,49.6,35.9,29.77,NE,45,2.0,0.0,59,0.00,RA,,0.00,WeatherDisplay:10.37,2013-01-12 22:08:00,
2013-01-13 00:11:00,49.6,36.3,29.77,ENE,68,1.1,1.1,60,0.00,CLR,,0.00,WeatherDisplay:10.37,2013-01-12 22:11:00,
2013-01-13 00:12:00,49.5,36.1,29.77,ENE,68,0.0,0.0,60,0.00,CLR,,0.00,WeatherDisplay:10.37,2013-01-12 22:12:00,
2013-01-13 00:13:00,49.5,36.1,29.77,ENE,68,0.0,0.0,60,0.00,CLR,,0.00,WeatherDisplay:10.37,2013-01-12 22:13:00,
2013-01-13 00:16:00,49.3,36.0,29.77,ENE,68,0.0,0.0,60,0.00,CLR,,0.00,WeatherDisplay:10.37,2013-01-12 22:16:00,
2013-01-13 00:17:00,49.3,36.0,29.77,ENE,68,0.0,0.0,60,0.00,CLR,,0.00,WeatherDisplay:10.37,2013-01-12 22:17:00,
2013-01-13 00:18:00,49.1,35.8,29.77,ENE,68,0.0,0.0,60,0.00,CLR,,0.00,WeatherDisplay:10.37,2013-01-12 22:18:00,
2013-01-13 00:21:00,48.9,35.6,29.77,ENE,68,1.1,0.0,60,0.00,CLR,,0.00,WeatherDisplay:10.37,2013-01-12 22:21:00,
2013-01-13 00:22:00,48.9,35.6,29.77,ENE,68,1.1,1.1,60,0.00,CLR,,0.00,WeatherDisplay:10.37,2013-01-12 22:22:00,
2013-01-13 00:23:00,48.9,35.6,29.77,ENE,68,2.0,2.0,60,0.00,CLR,,0.00,WeatherDisplay:10.37,2013-01-12 22:23:00,
2013-01-13 00:26:00,48.9,35.6,29.77,ENE,68,2.3,2.3,60,0.00,CLR,,0.00,WeatherDisplay:10.37,2013-01-12 22:26:00,
2013-01-13 00:27:00,48.9,35.6,29.77,ENE,68,2.4,2.4,60,0.00,CLR,,0.00,WeatherDisplay:10.37,2013-01-12 22:27:00,
2013-01-13 00:29:00,49.1,36.2,29.77,ENE,68,2.9,2.9,61,0.00,CLR,,0.00,WeatherDisplay:10.37,2013-01-12 22:29:00,
2013-01-13 00:31:00,49.5,37.4,29.77,ENE,68,2.3,2.3,63,0.00,CLR,,0.00,WeatherDisplay:10.37,2013-01-12 22:31:00,
2013-01-13 00:32:00,49.5,37.4,29.77,ENE,68,2.3,2.3,63,0.00,CLR,,0.00,WeatherDisplay:10.37,2013-01-12 22:32:00,
2013-01-13 00:34:00,49.5,37.4,29.80,ENE,68,2.0,0.0,63,0.00,CLR,,0.00,WeatherDisplay:10.37,2013-01-12 22:34:00,
2013-01-13 00:36:00,49.6,37.6,29.80,NNE,22,4.6,4.6,63,0.00,CLR,,0.00,WeatherDisplay:10.37,2013-01-12 22:36:00,
2013-01-13 00:37:00,49.6,37.6,29.80,NNE,22,4.6,4.6,63,0.00,CLR,,0.00,WeatherDisplay:10.37,2013-01-12 22:37:00,
2013-01-13 00:39:00,49.6,38.0,29.80,NNE,22,3.5,3.5,64,0.00,CLR,,0.00,WeatherDisplay:10.37,2013-01-12 22:39:00,
2013-01-13 00:41:00,49.8,38.1,29.80,ENE,68,3.6,3.6,64,0.00,CLR,,0.00,WeatherDisplay:10.37,2013-01-12 22:41:00,
2013-01-13 00:42:00,49.8,38.1,29.80,ENE,68,3.5,3.5,64,0.00,CLR,,0.00,WeatherDisplay:10.37,2013-01-12 22:42:00,
2013-01-13 00:44:00,49.8,38.1,29.80,NNE,22,3.5,3.5,64,0.00,CLR,,0.00,WeatherDisplay:10.37,2013-01-12 22:44:00,
2013-01-13 00:47:00,49.6,38.0,29.77,NNE,22,3.3,3.3,64,0.00,CLR,,0.00,WeatherDisplay:10.37,2013-01-12 22:47:00,
2013-01-13 00:49:00,49.5,37.4,29.77,NE,45,3.5,3.5,63,0.00,CLR,,0.00,WeatherDisplay:10.37,2013-01-12 22:49:00,
2013-01-13 00:52:00,49.3,37.2,29.77,NE,45,2.3,2.3,63,0.00,CLR,,0.00,WeatherDisplay:10.37,2013-01-12 22:52:00,
2013-01-13 00:54:00,49.3,37.6,29.77,NE,45,4.6,4.6,64,0.00,CLR,,0.00,WeatherDisplay:10.37,2013-01-12 22:54:00,
2013-01-13 00:57:00,49.3,37.6,29.77,NE,45,4.6,4.6,64,0.00,CLR,,0.00,WeatherDisplay:10.37,2013-01-12 22:57:00,
2013-01-13 00:59:00,49.3,38.0,29.77,NE,45,4.6,4.6,65,0.00,CLR,,0.00,WeatherDisplay:10.37,2013-01-12 22:59:00,
2013-01-13 01:02:00,49.1,37.4,29.80,NE,45,3.5,3.5,64,0.00,CLR,,0.00,WeatherDisplay:10.37,2013-01-12 23:02:00,
2013-01-13 01:04:00,49.1,37.4,29.80,NE,45,3.8,3.8,64,0.00,CLR,,0.00,WeatherDisplay:10.37,2013-01-12 23:04:00,
2013-01-13 01:07:00,49.1,37.4,29.80,NE,45,3.5,3.5,64,0.00,CLR,,0.00,WeatherDisplay:10.37,2013-01-12 23:07:00,
2013-01-13 01:10:00,49.1,37.4,29.80,NE,45,4.6,4.6,64,0.00,CLR,,0.00,WeatherDisplay:10.37,2013-01-12 23:10:00,
2013-01-13 01:12:00,49.1,37.4,29.80,ENE,68,3.5,3.5,64,0.00,CLR,,0.00,WeatherDisplay:10.37,2013-01-12 23:12:00,
2013-01-13 01:15:00,49.1,37.4,29.80,ENE,68,3.1,3.1,64,0.00,CLR,,0.00,WeatherDisplay:10.37,2013-01-12 23:15:00,
2013-01-13 01:17:00,48.9,37.3,29.77,ENE,68,3.5,3.5,64,0.00,CLR,,0.00,WeatherDisplay:10.37,2013-01-12 23:17:00,
2013-01-13 01:20:00,48.9,37.3,29.77,North,0,3.5,3.5,64,0.00,CLR,,0.00,WeatherDisplay:10.37,2013-01-12 23:20:00,
2013-01-13 01:22:00,48.9,37.7,29.77,NE,45,4.6,4.6,65,0.00,CLR,,0.00,WeatherDisplay:10.37,2013-01-12 23:22:00,
2013-01-13 01:23:00,48.9,37.7,29.77,ENE,68,4.6,4.6,65,0.00,CLR,,0.00,WeatherDisplay:10.37,2013-01-12 23:23:00,
2013-01-13 01:25:00,49.1,37.8,29.77,NE,45,3.5,3.5,65,0.00,CLR,,0.00,WeatherDisplay:10.37,2013-01-12 23:25:00,
2013-01-13 01:27:00,49.1,37.8,29.77,NE,45,2.9,2.9,65,0.00,CLR,,0.00,WeatherDisplay:10.37,2013-01-12 23:27:00,
2013-01-13 01:28:00,49.1,37.8,29.77,NE,45,2.6,2.6,65,0.00,CLR,,0.00,WeatherDisplay:10.37,2013-01-12 23:28:00,
2013-01-13 01:30:00,49.1,37.8,29.77,NE,45,3.5,3.5,65,0.00,CLR,,0.00,WeatherDisplay:10.37,2013-01-12 23:30:00,
2013-01-13 01:32:00,48.9,37.7,29.80,ENE,68,3.5,3.5,65,0.00,CLR,,0.00,WeatherDisplay:10.37,2013-01-12 23:32:00,
2013-01-13 01:33:00,48.9,37.7,29.80,ENE,68,2.3,2.3,65,0.00,CLR,,0.00,WeatherDisplay:10.37,2013-01-12 23:33:00,
2013-01-13 01:35:00,48.9,37.3,29.80,ENE,68,2.3,2.3,64,0.00,CLR,,0.00,WeatherDisplay:10.37,2013-01-12 23:35:00,
2013-01-13 01:37:00,48.7,37.1,29.80,ENE,68,2.6,2.6,64,0.00,CLR,,0.00,WeatherDisplay:10.37,2013-01-12 23:37:00,
2013-01-13 01:38:00,48.7,37.1,29.80,ENE,68,2.3,2.4,64,0.00,CLR,,0.00,WeatherDisplay:10.37,2013-01-12 23:38:00,
2013-01-13 01:40:00,48.7,37.1,29.80,NE,45,3.1,3.1,64,0.00,CLR,,0.00,WeatherDisplay:10.37,2013-01-12 23:40:00,
2013-01-13 01:42:00,48.7,37.1,29.80,NE,45,2.3,2.4,64,0.00,CLR,,0.00,WeatherDisplay:10.37,2013-01-12 23:42:00,
2013-01-13 01:43:00,48.7,37.1,29.80,NE,45,2.3,2.3,64,0.00,CLR,,0.00,WeatherDisplay:10.37,2013-01-12 23:43:00,
2013-01-13 01:45:00,48.7,37.5,29.80,ENE,68,3.1,3.1,65,0.00,CLR,,0.00,WeatherDisplay:10.37,2013-01-12 23:45:00,
2013-01-13 01:47:00,48.7,37.5,29.83,ENE,68,2.3,2.3,65,0.00,CLR,,0.00,WeatherDisplay:10.37,2013-01-12 23:47:00,
2013-01-13 01:48:00,48.7,37.1,29.83,ENE,68,2.3,0.0,64,0.00,CLR,,0.00,WeatherDisplay:10.37,2013-01-12 23:48:00,
2013-01-13 01:50:00,48.7,37.1,29.83,ENE,68,1.6,1.6,64,0.00,CLR,,0.00,WeatherDisplay:10.37,2013-01-12 23:50:00,
2013-01-13 01:52:00,48.6,36.9,29.83,ENE,68,2.3,2.3,64,0.00,CLR,,0.00,WeatherDisplay:10.37,2013-01-12 23:52:00,
2013-01-13 01:53:00,48.6,36.9,29.83,ENE,68,2.3,2.3,64,0.00,CLR,,0.00,WeatherDisplay:10.37,2013-01-12 23:53:00,
2013-01-13 01:55:00,48.6,36.9,29.83,ENE,68,1.1,0.0,64,0.00,CLR,,0.00,WeatherDisplay:10.37,2013-01-12 23:55:00,
2013-01-13 01:58:00,48.4,36.8,29.83,ENE,68,2.3,2.3,64,0.00,CLR,,0.00,WeatherDisplay:10.37,2013-01-12 23:58:00,
2013-01-13 02:00:00,48.4,37.2,29.83,ENE,68,2.3,2.3,65,0.00,CLR,,0.00,WeatherDisplay:10.37,2013-01-13 00:00:00,
2013-01-13 02:03:00,48.6,37.3,29.80,NE,45,3.5,3.5,65,0.00,CLR,,0.00,WeatherDisplay:10.37,2013-01-13 00:03:00,
2013-01-13 02:06:00,48.6,37.3,29.80,NE,45,3.5,3.5,65,0.00,CLR,,0.00,WeatherDisplay:10.37,2013-01-13 00:06:00,
2013-01-13 02:08:00,48.6,37.3,29.80,NE,45,3.3,3.3,65,0.00,CLR,,0.00,WeatherDisplay:10.37,2013-01-13 00:08:00,
2013-01-13 02:11:00,48.4,37.5,29.80,NE,45,3.5,3.5,66,0.00,CLR,,0.00,WeatherDisplay:10.37,2013-01-13 00:11:00,
2013-01-13 02:13:00,48.4,37.5,29.80,NNE,22,3.5,3.5,66,0.00,CLR,,0.00,WeatherDisplay:10.37,2013-01-13 00:13:00,
2013-01-13 02:16:00,48.4,37.5,29.80,NNE,22,2.9,2.9,66,0.00,CLR,,0.00,WeatherDisplay:10.37,2013-01-13 00:16:00,
2013-01-13 02:18:00,48.4,37.5,29.83,NE,45,3.6,3.6,66,0.00,CLR,,0.00,WeatherDisplay:10.37,2013-01-13 00:18:00,
2013-01-13 02:21:00,48.4,37.5,29.83,NE,45,3.8,3.8,66,0.00,CLR,,0.00,WeatherDisplay:10.37,2013-01-13 00:21:00,
2013-01-13 02:23:00,48.6,37.7,29.83,NNE,22,3.5,3.5,66,0.00,CLR,,0.00,WeatherDisplay:10.37,2013-01-13 00:23:00,
2013-01-13 02:26:00,48.6,37.7,29.83,NNE,22,4.6,4.6,66,0.00,CLR,,0.00,WeatherDisplay:10.37,2013-01-13 00:26:00,
2013-01-13 02:28:00,48.6,37.7,29.83,NNE,22,3.5,3.5,66,0.00,CLR,,0.00,WeatherDisplay:10.37,2013-01-13 00:28:00,
2013-01-13 02:29:00,48.6,37.7,29.83,NNE,22,3.5,3.5,66,0.00,CLR,,0.00,WeatherDisplay:10.37,2013-01-13 00:29:00,
2013-01-13 02:31:00,48.6,37.7,29.83,NNE,22,3.5,3.5,66,0.00,CLR,,0.00,WeatherDisplay:10.37,2013-01-13 00:31:00,
2013-01-13 02:33:00,48.6,37.7,29.83,NE,45,3.5,3.5,66,0.00,CLR,,0.00,WeatherDisplay:10.37,2013-01-13 00:33:00,
2013-01-13 02:34:00,48.6,37.7,29.83,NE,45,3.5,3.5,66,0.00,CLR,,0.00,WeatherDisplay:10.37,2013-01-13 00:34:00,
2013-01-13 02:36:00,48.4,37.5,29.83,NE,45,2.3,2.3,66,0.00,CLR,,0.00,WeatherDisplay:10.37,2013-01-13 00:36:00,
2013-01-13 02:38:00,48.4,37.5,29.83,NE,45,2.3,2.3,66,0.00,CLR,,0.00,WeatherDisplay:10.37,2013-01-13 00:38:00,
2013-01-13 02:39:00,48.2,37.4,29.83,NE,45,2.3,2.3,66,0.00,CLR,,0.00,WeatherDisplay:10.37,2013-01-13 00:39:00,
2013-01-13 02:41:00,48.2,37.0,29.83,NE,45,3.3,3.3,65,0.00,CLR,,0.00,WeatherDisplay:10.37,2013-01-13 00:41:00,
2013-01-13 02:44:00,48.2,37.4,29.83,NE,45,3.8,3.8,66,0.00,CLR,,0.00,WeatherDisplay:10.37,2013-01-13 00:44:00,
2013-01-13 02:46:00,48.4,37.5,29.83,NE,45,3.5,3.5,66,0.00,CLR,,0.00,WeatherDisplay:10.37,2013-01-13 00:46:00,
2013-01-13 02:49:00,48.4,37.5,29.83,NE,45,3.5,3.5,66,0.00,CLR,,0.00,WeatherDisplay:10.37,2013-01-13 00:49:00,
2013-01-13 02:50:00,48.4,37.5,29.83,NE,47,2.0,4.0,66,0.00,CLR,,0.00,WeatherDisplay:10.37,2013-01-13 00:50:00,
2013-01-13 02:51:00,48.4,37.5,29.83,NE,45,3.5,3.5,66,0.00,CLR,,0.00,WeatherDisplay:10.37,2013-01-13 00:51:00,
2013-01-13 02:54:00,48.2,37.4,29.83,NE,45,3.5,3.5,66,0.00,CLR,,0.00,WeatherDisplay:10.37,2013-01-13 00:54:00,
2013-01-13 02:55:00,48.4,37.5,29.83,NE,45,3.5,3.5,66,0.00,CLR,,0.00,WeatherDisplay:10.37,2013-01-13 00:55:00,
2013-01-13 02:56:00,48.4,37.5,29.83,NE,45,3.6,3.6,66,0.00,CLR,,0.00,WeatherDisplay:10.37,2013-01-13 00:56:00,
2013-01-13 02:59:00,48.4,37.5,29.83,NNE,22,3.5,3.5,66,0.00,CLR,,0.00,WeatherDisplay:10.37,2013-01-13 00:59:00,
2013-01-13 03:00:00,48.4,37.5,29.83,NNE,22,3.5,3.5,66,0.00,CLR,,0.00,WeatherDisplay:10.37,2013-01-13 01:00:00,
2013-01-13 03:01:00,48.2,37.4,29.83,NNE,22,3.5,3.5,66,0.00,CLR,,0.00,WeatherDisplay:10.37,2013-01-13 01:01:00,
2013-01-13 03:04:00,48.2,37.4,29.83,NE,45,3.5,3.5,66,0.00,CLR,,0.00,WeatherDisplay:10.37,2013-01-13 01:04:00,
2013-01-13 03:05:00,48.2,37.4,29.83,NE,45,2.6,2.6,66,0.00,CLR,,0.00,WeatherDisplay:10.37,2013-01-13 01:05:00,
2013-01-13 03:06:00,48.2,37.4,29.83,NE,45,2.6,2.6,66,0.00,CLR,,0.00,WeatherDisplay:10.37,2013-01-13 01:06:00,
2013-01-13 03:09:00,48.2,37.4,29.83,NE,45,2.6,2.6,66,0.00,CLR,,0.00,WeatherDisplay:10.37,2013-01-13 01:09:00,
2013-01-13 03:10:00,48.2,37.4,29.83,NE,45,3.5,3.5,66,0.00,CLR,,0.00,WeatherDisplay:10.37,2013-01-13 01:10:00,
2013-01-13 03:11:00,48.2,37.4,29.83,NE,45,2.6,2.6,66,0.00,CLR,,0.00,WeatherDisplay:10.37,2013-01-13 01:11:00,
2013-01-13 03:14:00,48.2,37.4,29.83,NE,45,4.6,4.6,66,0.00,CLR,,0.00,WeatherDisplay:10.37,2013-01-13 01:14:00,
2013-01-13 03:15:00,48.2,37.4,29.83,NE,45,3.5,3.5,66,0.00,CLR,,0.00,WeatherDisplay:10.37,2013-01-13 01:15:00,
2013-01-13 03:17:00,48.2,37.4,29.83,NE,45,2.4,2.4,66,0.00,CLR,,0.00,WeatherDisplay:10.37,2013-01-13 01:17:00,
2013-01-13 03:19:00,48.0,37.2,29.83,NE,45,2.3,2.3,66,0.00,CLR,,0.00,WeatherDisplay:10.37,2013-01-13 01:19:00,
2013-01-13 03:20:00,48.0,37.2,29.83,NE,45,2.6,2.6,66,0.00,CLR,,0.00,WeatherDisplay:10.37,2013-01-13 01:20:00,
2013-01-13 03:22:00,48.0,37.2,29.83,NE,45,3.5,3.5,66,0.00,CLR,,0.00,WeatherDisplay:10.37,2013-01-13 01:22:00,
2013-01-13 03:24:00,48.0,37.2,29.83,NE,45,3.5,3.5,66,0.00,CLR,,0.00,WeatherDisplay:10.37,2013-01-13 01:24:00,
2013-01-13 03:25:00,48.0,37.6,29.83,NE,45,3.5,3.5,67,0.00,CLR,,0.00,WeatherDisplay:10.37,2013-01-13 01:25:00,
2013-01-13 03:26:00,48.0,37.6,29.83,NE,45,3.5,3.5,67,0.00,CLR,,0.00,WeatherDisplay:10.37,2013-01-13 01:26:00,
2013-01-13 03:27:00,48.0,37.6,29.83,NE,45,3.5,3.5,67,0.00,CLR,,0.00,WeatherDisplay:10.37,2013-01-13 01:27:00,
2013-01-13 03:29:00,47.8,37.0,29.83,NE,45,2.4,2.4,66,0.00,CLR,,0.00,WeatherDisplay:10.37,2013-01-13 01:29:00,
2013-01-13 03:31:00,47.8,37.4,29.83,NNE,22,2.6,2.6,67,0.00,CLR,,0.00,WeatherDisplay:10.37,2013-01-13 01:31:00,
2013-01-13 03:32:00,47.8,37.4,29.83,NNE,22,4.6,4.6,67,0.00,CLR,,0.00,WeatherDisplay:10.37,2013-01-13 01:32:00,
2013-01-13 03:34:00,47.8,37.4,29.83,NNE,22,4.6,4.6,67,0.00,CLR,,0.00,WeatherDisplay:10.37,2013-01-13 01:34:00,
2013-01-13 03:36:00,47.8,37.4,29.83,NE,45,2.6,2.6,67,0.00,CLR,,0.00,WeatherDisplay:10.37,2013-01-13 01:36:00,
2013-01-13 03:37:00,47.8,37.4,29.83,NNE,22,4.6,4.6,67,0.00,CLR,,0.00,WeatherDisplay:10.37,2013-01-13 01:37:00,
2013-01-13 03:39:00,47.7,37.2,29.83,NE,45,3.5,3.5,67,0.00,CLR,,0.00,WeatherDisplay:10.37,2013-01-13 01:39:00,
2013-01-13 03:41:00,47.7,37.6,29.83,NNE,22,3.6,3.6,68,0.00,CLR,,0.00,WeatherDisplay:10.37,2013-01-13 01:41:00,
2013-01-13 03:42:00,47.7,37.6,29.83,NNE,22,4.6,4.6,68,0.00,CLR,,0.00,WeatherDisplay:10.37,2013-01-13 01:42:00,
2013-01-13 03:44:00,47.7,37.6,29.83,NNE,22,4.6,4.6,68,0.00,CLR,,0.00,WeatherDisplay:10.37,2013-01-13 01:44:00,
2013-01-13 03:46:00,47.7,37.6,29.83,NE,45,4.6,4.6,68,0.00,CLR,,0.00,WeatherDisplay:10.37,2013-01-13 01:46:00,
2013-01-13 03:47:00,47.7,37.6,29.85,NE,45,4.6,4.6,68,0.00,CLR,,0.00,WeatherDisplay:10.37,2013-01-13 01:47:00,
2013-01-13 03:50:00,47.7,37.6,29.85,ENE,68,4.3,4.3,68,0.00,CLR,,0.00,WeatherDisplay:10.37,2013-01-13 01:50:00,
2013-01-13 03:51:00,47.7,37.6,29.85,NE,45,4.6,4.6,68,0.00,CLR,,0.00,WeatherDisplay:10.37,2013-01-13 01:51:00,
2013-01-13 03:52:00,47.7,37.6,29.85,NE,45,4.6,4.6,68,0.00,CLR,,0.00,WeatherDisplay:10.37,2013-01-13 01:52:00,
2013-01-13 03:56:00,47.8,38.2,29.85,NE,45,4.6,4.6,69,0.00,CLR,,0.00,WeatherDisplay:10.37,2013-01-13 01:56:00,
2013-01-13 03:57:00,47.8,38.2,29.85,NE,45,4.6,4.6,69,0.00,CLR,,0.00,WeatherDisplay:10.37,2013-01-13 01:57:00,
2013-01-13 04:01:00,48.0,38.0,29.85,NNE,22,3.6,3.6,68,0.00,CLR,,0.00,WeatherDisplay:10.37,2013-01-13 02:01:00,
2013-01-13 04:02:00,48.0,38.0,29.83,NNE,22,3.5,3.5,68,0.00,CLR,,0.00,WeatherDisplay:10.37,2013-01-13 02:02:00,
2013-01-13 04:06:00,48.0,38.0,29.83,ENE,68,5.8,5.8,68,0.00,CLR,,0.00,WeatherDisplay:10.37,2013-01-13 02:06:00,
2013-01-13 04:07:00,48.0,38.0,29.83,NNE,22,4.6,4.6,68,0.00,CLR,,0.00,WeatherDisplay:10.37,2013-01-13 02:07:00,
2013-01-13 04:11:00,48.2,38.5,29.83,NE,45,5.9,5.9,69,0.00,CLR,,0.00,WeatherDisplay:10.37,2013-01-13 02:11:00,
2013-01-13 04:12:00,48.4,38.7,29.83,NE,45,6.9,6.9,69,0.00,CLR,,0.00,WeatherDisplay:10.37,2013-01-13 02:12:00,
2013-01-13 04:13:00,48.4,39.0,29.83,NE,45,4.6,4.9,70,0.00,CLR,,0.00,WeatherDisplay:10.37,2013-01-13 02:13:00,
2013-01-13 04:16:00,48.4,39.0,29.83,NE,45,5.6,5.6,70,0.00,CLR,,0.00,WeatherDisplay:10.37,2013-01-13 02:16:00,
2013-01-13 04:17:00,48.4,39.0,29.83,NE,45,5.8,5.8,70,0.00,CLR,,0.00,WeatherDisplay:10.37,2013-01-13 02:17:00,
2013-01-13 04:18:00,48.6,39.2,29.83,NNE,22,4.9,4.9,70,0.00,CLR,,0.00,WeatherDisplay:10.37,2013-01-13 02:18:00,
2013-01-13 04:21:00,48.6,39.9,29.83,NE,45,5.8,5.8,72,0.00,CLR,,0.00,WeatherDisplay:10.37,2013-01-13 02:21:00,
2013-01-13 04:22:00,48.6,39.9,29.83,NE,45,4.6,4.6,72,0.00,CLR,,0.00,WeatherDisplay:10.37,2013-01-13 02:22:00,
2013-01-13 04:23:00,48.6,39.9,29.83,ENE,68,5.8,5.8,72,0.00,CLR,,0.00,WeatherDisplay:10.37,2013-01-13 02:23:00,
2013-01-13 04:27:00,48.7,41.2,29.83,NE,45,4.6,4.6,75,0.00,CLR,,0.00,WeatherDisplay:10.37,2013-01-13 02:27:00,
2013-01-13 04:28:00,48.7,41.2,29.83,NNE,22,4.6,4.6,75,0.00,CLR,,0.00,WeatherDisplay:10.37,2013-01-13 02:28:00,
2013-01-13 04:32:00,48.7,42.2,29.83,NNE,22,4.6,4.6,78,0.00,CLR,,0.00,WeatherDisplay:10.37,2013-01-13 02:32:00,
2013-01-13 04:33:00,48.7,42.5,29.83,NE,45,4.6,4.6,79,0.00,CLR,,0.00,WeatherDisplay:10.37,2013-01-13 02:33:00,
2013-01-13 04:37:00,48.7,42.8,29.83,NE,45,4.6,4.6,80,0.00,CLR,,0.00,WeatherDisplay:10.37,2013-01-13 02:37:00,
2013-01-13 04:38:00,48.7,43.2,29.83,ENE,68,5.8,5.8,81,0.00,CLR,,0.00,WeatherDisplay:10.37,2013-01-13 02:38:00,
2013-01-13 04:39:00,48.7,43.2,29.83,NE,45,4.6,4.7,81,0.00,CLR,,0.00,WeatherDisplay:10.37,2013-01-13 02:39:00,
2013-01-13 04:42:00,48.7,43.2,29.83,NE,45,4.6,4.6,81,0.00,CLR,,0.00,WeatherDisplay:10.37,2013-01-13 02:42:00,
2013-01-13 04:43:00,48.7,43.2,29.83,NE,45,4.6,4.6,81,0.00,CLR,,0.00,WeatherDisplay:10.37,2013-01-13 02:43:00,
2013-01-13 04:44:00,48.7,43.2,29.83,ENE,68,3.6,3.6,81,0.00,CLR,,0.00,WeatherDisplay:10.37,2013-01-13 02:44:00,
2013-01-13 04:47:00,48.7,43.5,29.83,ENE,68,5.8,5.8,82,0.00,CLR,,0.00,WeatherDisplay:10.37,2013-01-13 02:47:00,
2013-01-13 04:48:00,48.7,43.5,29.83,ENE,68,5.8,5.8,82,0.00,CLR,,0.00,WeatherDisplay:10.37,2013-01-13 02:48:00,
2013-01-13 04:49:00,48.9,44.0,29.83,ENE,68,4.6,4.6,83,0.00,CLR,,0.00,WeatherDisplay:10.37,2013-01-13 02:49:00,
2013-01-13 04:52:00,48.9,44.3,29.83,NE,45,5.6,5.6,84,0.00,CLR,,0.00,WeatherDisplay:10.37,2013-01-13 02:52:00,
2013-01-13 04:53:00,48.9,44.3,29.83,ENE,68,4.6,4.6,84,0.00,CLR,,0.00,WeatherDisplay:10.37,2013-01-13 02:53:00,
2013-01-13 04:54:00,49.1,44.8,29.83,NE,45,6.9,6.9,85,0.00,CLR,,0.00,WeatherDisplay:10.37,2013-01-13 02:54:00,
2013-01-13 04:57:00,49.1,45.4,29.83,ENE,68,5.8,5.8,87,0.00,CLR,,0.00,WeatherDisplay:10.37,2013-01-13 02:57:00,
2013-01-13 04:58:00,49.1,45.4,29.83,NE,45,5.8,5.8,87,0.00,CLR,,0.00,WeatherDisplay:10.37,2013-01-13 02:58:00,
2013-01-13 04:59:00,49.1,45.4,29.83,ENE,68,4.6,4.6,87,0.00,CLR,,0.00,WeatherDisplay:10.37,2013-01-13 02:59:00,
2013-01-13 05:02:00,49.1,45.4,29.85,NE,45,5.8,5.8,87,0.00,CLR,,0.00,WeatherDisplay:10.37,2013-01-13 03:02:00,
2013-01-13 05:03:00,49.1,45.4,29.85,ENE,68,4.6,4.6,87,0.00,CLR,,0.00,WeatherDisplay:10.37,2013-01-13 03:03:00,
2013-01-13 05:04:00,49.1,45.1,29.85,NE,45,4.6,4.6,86,0.00,CLR,,0.00,WeatherDisplay:10.37,2013-01-13 03:04:00,
2013-01-13 05:05:00,49.1,45.4,29.85,NE,45,4.6,4.6,87,0.00,CLR,,0.00,WeatherDisplay:10.37,2013-01-13 03:05:00,
2013-01-13 05:07:00,49.1,45.7,29.85,NE,45,6.9,6.9,88,0.00,CLR,,0.00,WeatherDisplay:10.37,2013-01-13 03:07:00,
2013-01-13 05:08:00,49.1,45.7,29.85,NE,45,3.8,3.8,88,0.00,CLR,,0.00,WeatherDisplay:10.37,2013-01-13 03:08:00,
2013-01-13 05:09:00,49.1,45.7,29.85,NE,45,4.6,4.6,88,0.00,CLR,,0.00,WeatherDisplay:10.37,2013-01-13 03:09:00,
2013-01-13 05:10:00,49.1,45.7,29.85,ENE,68,5.8,5.8,88,0.00,CLR,,0.00,WeatherDisplay:10.37,2013-01-13 03:10:00,
2013-01-13 05:12:00,49.1,45.7,29.85,NE,45,5.8,5.8,88,0.00,CLR,,0.00,WeatherDisplay:10.37,2013-01-13 03:12:00,
2013-01-13 05:13:00,49.1,45.7,29.85,NE,45,5.8,5.8,88,0.00,CLR,,0.00,WeatherDisplay:10.37,2013-01-13 03:13:00,
2013-01-13 05:14:00,49.1,46.0,29.85,NNE,22,5.8,5.8,89,0.00,CLR,,0.00,WeatherDisplay:10.37,2013-01-13 03:14:00,
2013-01-13 05:15:00,49.1,46.0,29.85,NE,45,4.6,4.6,89,0.00,CLR,,0.00,WeatherDisplay:10.37,2013-01-13 03:15:00,
2013-01-13 05:17:00,49.3,46.2,29.85,NNE,22,5.8,5.8,89,0.00,CLR,,0.00,WeatherDisplay:10.37,2013-01-13 03:17:00,
2013-01-13 05:18:00,49.3,46.2,29.85,NE,45,4.6,4.6,89,0.00,CLR,,0.00,WeatherDisplay:10.37,2013-01-13 03:18:00,
2013-01-13 05:19:00,49.3,46.2,29.85,ENE,68,4.6,4.6,89,0.00,CLR,,0.00,WeatherDisplay:10.37,2013-01-13 03:19:00,
2013-01-13 05:20:00,49.3,46.2,29.85,ENE,68,5.8,5.8,89,0.00,CLR,,0.00,WeatherDisplay:10.37,2013-01-13 03:20:00,
2013-01-13 05:23:00,49.1,46.0,29.85,NE,45,5.8,5.8,89,0.00,CLR,,0.00,WeatherDisplay:10.37,2013-01-13 03:23:00,
2013-01-13 05:24:00,49.1,46.0,29.85,NE,45,5.8,5.8,89,0.00,CLR,,0.00,WeatherDisplay:10.37,2013-01-13 03:24:00,
2013-01-13 05:25:00,49.1,46.0,29.85,NE,45,5.8,5.8,89,0.00,CLR,,0.00,WeatherDisplay:10.37,2013-01-13 03:25:00,
2013-01-13 05:28:00,49.1,46.0,29.85,NE,45,5.8,5.8,89,0.00,CLR,,0.00,WeatherDisplay:10.37,2013-01-13 03:28:00,
2013-01-13 05:29:00,49.1,45.7,29.85,NE,45,5.8,5.8,88,0.00,CLR,,0.00,WeatherDisplay:10.37,2013-01-13 03:29:00,
2013-01-13 05:30:00,49.1,45.7,29.85,ENE,68,5.8,5.8,88,0.00,CLR,,0.00,WeatherDisplay:10.37,2013-01-13 03:30:00,
2013-01-13 05:33:00,49.1,45.7,29.85,ENE,68,8.1,8.1,88,0.00,CLR,,0.00,WeatherDisplay:10.37,2013-01-13 03:33:00,
2013-01-13 05:34:00,49.3,46.2,29.85,NNE,22,5.8,5.8,89,0.00,CLR,,0.00,WeatherDisplay:10.37,2013-01-13 03:34:00,
2013-01-13 05:35:00,49.3,46.2,29.85,NNE,22,4.6,4.6,89,0.00,CLR,,0.00,WeatherDisplay:10.37,2013-01-13 03:35:00,
2013-01-13 05:38:00,49.3,45.9,29.85,NE,45,3.5,3.5,88,0.00,CLR,,0.00,WeatherDisplay:10.37,2013-01-13 03:38:00,
2013-01-13 05:40:00,49.3,45.9,29.85,ENE,68,4.6,4.6,88,0.00,CLR,,0.00,WeatherDisplay:10.37,2013-01-13 03:40:00,
2013-01-13 05:43:00,49.1,45.7,29.85,NNE,22,5.8,5.8,88,0.00,CLR,,0.00,WeatherDisplay:10.37,2013-01-13 03:43:00,
2013-01-13 05:45:00,49.3,45.9,29.85,ENE,68,6.4,6.4,88,0.00,CLR,,0.00,WeatherDisplay:10.37,2013-01-13 03:45:00,
2013-01-13 05:48:00,49.5,46.4,29.85,NNE,22,5.8,5.8,89,0.00,CLR,,0.00,WeatherDisplay:10.37,2013-01-13 03:48:00,
2013-01-13 05:49:00,49.5,46.4,29.85,NNE,22,5.8,5.8,89,0.00,CLR,,0.00,WeatherDisplay:10.37,2013-01-13 03:49:00,
2013-01-13 05:50:00,49.5,46.1,29.85,NNE,22,5.8,5.8,88,0.00,CLR,,0.00,WeatherDisplay:10.37,2013-01-13 03:50:00,
2013-01-13 05:54:00,49.5,46.1,29.85,NE,45,4.6,4.6,88,0.00,CLR,,0.00,WeatherDisplay:10.37,2013-01-13 03:54:00,
2013-01-13 05:55:00,49.5,46.1,29.85,NE,45,5.8,5.8,88,0.00,CLR,,0.00,WeatherDisplay:10.37,2013-01-13 03:55:00,
2013-01-13 05:56:00,49.5,46.1,29.85,NE,45,5.8,5.8,88,0.00,CLR,,0.00,WeatherDisplay:10.37,2013-01-13 03:56:00,
2013-01-13 05:59:00,49.5,45.8,29.85,NE,45,5.8,5.8,87,0.00,CLR,,0.00,WeatherDisplay:10.37,2013-01-13 03:59:00,
2013-01-13 06:01:00,49.5,45.8,29.85,ENE,68,4.6,4.6,87,0.00,CLR,,0.00,WeatherDisplay:10.37,2013-01-13 04:01:00,
2013-01-13 06:04:00,49.5,45.8,29.85,NE,45,6.9,6.9,87,0.00,CLR,,0.00,WeatherDisplay:10.37,2013-01-13 04:04:00,
2013-01-13 06:06:00,49.5,45.8,29.85,ENE,68,4.6,4.6,87,0.00,CLR,,0.00,WeatherDisplay:10.37,2013-01-13 04:06:00,
2013-01-13 06:09:00,49.5,45.4,29.85,NNE,22,4.6,4.6,86,0.00,CLR,,0.00,WeatherDisplay:10.37,2013-01-13 04:09:00,
2013-01-13 06:11:00,49.5,45.1,29.85,NE,45,8.1,8.1,85,0.00,CLR,,0.00,WeatherDisplay:10.37,2013-01-13 04:11:00,
2013-01-13 06:14:00,49.5,45.1,29.85,ENE,68,3.8,3.8,85,0.00,CLR,,0.00,WeatherDisplay:10.37,2013-01-13 04:14:00,
2013-01-13 06:15:00,49.5,45.1,29.85,NE,50,2.0,8.0,85,0.00,CLR,,0.00,WeatherDisplay:10.37,2013-01-13 04:15:00,
2013-01-13 06:16:00,49.5,44.8,29.85,NE,45,6.0,6.0,84,0.00,CLR,,0.00,WeatherDisplay:10.37,2013-01-13 04:16:00,
2013-01-13 06:19:00,49.5,44.8,29.83,NNE,22,5.8,5.8,84,0.00,CLR,,0.00,WeatherDisplay:10.37,2013-01-13 04:19:00,
2013-01-13 06:20:00,49.4,44.8,29.83,NE,46,2.0,6.0,84,0.00,CLR,,0.00,WeatherDisplay:10.37,2013-01-13 04:20:00,
2013-01-13 06:21:00,49.3,44.6,29.83,ENE,68,5.8,5.8,84,0.00,CLR,,0.00,WeatherDisplay:10.37,2013-01-13 04:21:00,
2013-01-13 06:24:00,49.3,44.6,29.83,NNE,22,5.8,5.8,84,0.00,CLR,,0.00,WeatherDisplay:10.37,2013-01-13 04:24:00,
2013-01-13 06:25:00,49.3,44.6,29.83,NE,45,4.6,4.6,84,0.00,CLR,,0.00,WeatherDisplay:10.37,2013-01-13 04:25:00,
2013-01-13 06:26:00,49.3,44.6,29.83,NE,45,4.6,4.6,84,0.00,CLR,,0.00,WeatherDisplay:10.37,2013-01-13 04:26:00,
2013-01-13 06:29:00,49.1,44.5,29.83,NNE,22,4.7,4.7,84,0.00,CLR,,0.00,WeatherDisplay:10.37,2013-01-13 04:29:00,
2013-01-13 06:30:00,49.3,44.6,29.83,NNE,22,4.6,4.6,84,0.00,CLR,,0.00,WeatherDisplay:10.37,2013-01-13 04:30:00,
2013-01-13 06:31:00,49.3,44.6,29.83,NNE,22,4.6,4.6,84,0.00,CLR,,0.00,WeatherDisplay:10.37,2013-01-13 04:31:00,
2013-01-13 06:32:00,49.3,44.6,29.85,NNE,22,4.6,4.6,84,0.00,CLR,,0.00,WeatherDisplay:10.37,2013-01-13 04:32:00,
2013-01-13 06:34:00,49.1,44.2,29.85,NE,45,3.1,3.1,83,0.00,CLR,,0.00,WeatherDisplay:10.37,2013-01-13 04:34:00,
2013-01-13 06:35:00,49.1,44.2,29.85,NE,45,5.4,5.4,83,0.00,CLR,,0.00,WeatherDisplay:10.37,2013-01-13 04:35:00,
2013-01-13 06:37:00,49.1,44.2,29.85,NNE,22,5.8,5.8,83,0.00,CLR,,0.00,WeatherDisplay:10.37,2013-01-13 04:37:00,
2013-01-13 06:39:00,49.1,44.2,29.85,NNE,22,5.8,5.8,83,0.00,CLR,,0.00,WeatherDisplay:10.37,2013-01-13 04:39:00,
2013-01-13 06:41:00,49.1,44.2,29.85,NNE,22,5.8,5.8,83,0.00,CLR,,0.00,WeatherDisplay:10.37,2013-01-13 04:41:00,
2013-01-13 06:42:00,49.1,44.2,29.85,NE,45,4.9,4.9,83,0.00,CLR,,0.00,WeatherDisplay:10.37,2013-01-13 04:42:00,
2013-01-13 06:45:00,49.1,44.2,29.85,NE,39,5.0,6.0,83,0.00,CLR,,0.00,WeatherDisplay:10.37,2013-01-13 04:45:00,
2013-01-13 06:46:00,49.1,44.2,29.85,NNE,22,4.6,4.6,83,0.00,CLR,,0.00,WeatherDisplay:10.37,2013-01-13 04:46:00,
2013-01-13 06:47:00,49.1,44.2,29.83,NE,45,5.4,5.4,83,0.00,CLR,,0.00,WeatherDisplay:10.37,2013-01-13 04:47:00,
2013-01-13 06:50:00,49.1,44.2,29.83,NE,45,4.6,4.6,83,0.00,CLR,,0.00,WeatherDisplay:10.37,2013-01-13 04:50:00,
2013-01-13 06:51:00,49.1,44.2,29.83,NE,45,4.6,4.6,83,0.00,CLR,,0.00,WeatherDisplay:10.37,2013-01-13 04:51:00,
2013-01-13 06:52:00,49.1,44.2,29.83,NE,45,4.0,4.0,83,0.00,CLR,,0.00,WeatherDisplay:10.37,2013-01-13 04:52:00,
2013-01-13 06:53:00,48.9,44.0,29.83,NE,45,4.6,4.6,83,0.00,CLR,,0.00,WeatherDisplay:10.37,2013-01-13 04:53:00,
2013-01-13 06:55:00,48.9,43.7,29.83,NE,45,4.6,4.6,82,0.00,CLR,,0.00,WeatherDisplay:10.37,2013-01-13 04:55:00,
2013-01-13 06:56:00,48.9,43.7,29.83,NE,45,3.5,3.5,82,0.00,CLR,,0.00,WeatherDisplay:10.37,2013-01-13 04:56:00,
2013-01-13 06:57:00,48.7,43.5,29.83,NNE,22,4.9,4.9,82,0.00,CLR,,0.00,WeatherDisplay:10.37,2013-01-13 04:57:00,
2013-01-13 06:58:00,48.9,43.7,29.83,NE,45,4.6,4.6,82,0.00,CLR,,0.00,WeatherDisplay:10.37,2013-01-13 04:58:00,
2013-01-13 07:02:00,48.9,43.7,29.85,NE,45,6.9,6.9,82,0.00,CLR,,0.00,WeatherDisplay:10.37,2013-01-13 05:02:00,
2013-01-13 07:07:00,48.7,43.5,29.85,NNE,22,4.0,4.0,82,0.00,CLR,,0.00,WeatherDisplay:10.37,2013-01-13 05:07:00,
2013-01-13 07:12:00,48.7,43.5,29.85,NE,45,4.6,4.6,82,0.00,CLR,,0.00,WeatherDisplay:10.37,2013-01-13 05:12:00,
2013-01-13 07:13:00,48.9,44.0,29.85,NE,45,4.6,4.6,83,0.00,CLR,,0.00,WeatherDisplay:10.37,2013-01-13 05:13:00,
2013-01-13 07:17:00,48.7,43.8,29.85,NE,45,4.6,4.6,83,0.00,CLR,,0.00,WeatherDisplay:10.37,2013-01-13 05:17:00,
2013-01-13 07:18:00,48.7,43.8,29.85,NE,45,4.6,4.6,83,0.00,CLR,,0.00,WeatherDisplay:10.37,2013-01-13 05:18:00,
2013-01-13 07:22:00,48.9,44.0,29.85,NE,45,4.6,4.6,83,0.00,CLR,,0.00,WeatherDisplay:10.37,2013-01-13 05:22:00,
2013-01-13 07:23:00,48.7,43.8,29.85,NE,45,4.7,4.7,83,0.00,CLR,,0.00,WeatherDisplay:10.37,2013-01-13 05:23:00,
2013-01-13 07:27:00,48.7,43.5,29.85,NE,45,2.6,2.6,82,0.00,CLR,,0.00,WeatherDisplay:10.37,2013-01-13 05:27:00,
2013-01-13 07:28:00,48.7,43.5,29.85,NE,45,3.8,3.8,82,0.00,CLR,,0.00,WeatherDisplay:10.37,2013-01-13 05:28:00,
2013-01-13 07:32:00,48.6,43.3,29.88,NE,45,5.8,5.8,82,0.00,CLR,,0.00,WeatherDisplay:10.37,2013-01-13 05:32:00,
2013-01-13 07:33:00,48.6,43.3,29.88,NE,45,4.7,4.7,82,0.00,CLR,,0.00,WeatherDisplay:10.37,2013-01-13 05:33:00,
2013-01-13 07:37:00,48.6,43.6,29.88,NE,45,3.6,3.6,83,0.00,CLR,,0.00,WeatherDisplay:10.37,2013-01-13 05:37:00,
2013-01-13 07:38:00,48.6,43.6,29.88,NE,45,3.5,3.5,83,0.00,CLR,,0.00,WeatherDisplay:10.37,2013-01-13 05:38:00,
2013-01-13 07:42:00,48.6,43.6,29.88,NE,45,4.0,4.0,83,0.00,CLR,,0.00,WeatherDisplay:10.37,2013-01-13 05:42:00,
2013-01-13 07:43:00,48.6,43.6,29.88,NE,45,4.6,4.6,83,0.00,CLR,,0.00,WeatherDisplay:10.37,2013-01-13 05:43:00,
2013-01-13 07:47:00,48.6,43.6,29.88,NE,45,4.6,4.6,83,0.00,CLR,,0.00,WeatherDisplay:10.37,2013-01-13 05:47:00,
2013-01-13 07:48:00,48.6,43.6,29.88,NE,45,3.5,3.5,83,0.00,CLR,,0.00,WeatherDisplay:10.37,2013-01-13 05:48:00,
2013-01-13 07:52:00,48.6,43.6,29.88,NE,45,3.5,3.5,83,0.00,CLR,,0.00,WeatherDisplay:10.37,2013-01-13 05:52:00,
2013-01-13 07:53:00,48.4,43.5,29.88,NE,45,3.5,3.5,83,0.00,CLR,,0.00,WeatherDisplay:10.37,2013-01-13 05:53:00,
2013-01-13 07:54:00,48.4,43.5,29.88,NE,45,3.5,3.5,83,0.00,CLR,,0.00,WeatherDisplay:10.37,2013-01-13 05:54:00,
2013-01-13 07:57:00,48.4,43.5,29.88,ENE,68,3.5,3.5,83,0.00,CLR,,0.00,WeatherDisplay:10.37,2013-01-13 05:57:00,
2013-01-13 07:58:00,48.4,43.5,29.88,ENE,68,3.5,3.5,83,0.00,CLR,,0.00,WeatherDisplay:10.37,2013-01-13 05:58:00,
2013-01-13 07:59:00,48.4,43.5,29.88,ENE,68,3.8,3.8,83,0.00,CLR,,0.00,WeatherDisplay:10.37,2013-01-13 05:59:00,
2013-01-13 08:03:00,48.2,43.3,29.91,ENE,68,3.5,3.5,83,0.00,CLR,,0.00,WeatherDisplay:10.37,2013-01-13 06:03:00,
2013-01-13 08:04:00,48.2,43.3,29.91,ENE,68,3.5,3.5,83,0.00,CLR,,0.00,WeatherDisplay:10.37,2013-01-13 06:04:00,
2013-01-13 08:08:00,48.2,43.3,29.91,NE,45,3.6,3.6,83,0.00,CLR,,0.00,WeatherDisplay:10.37,2013-01-13 06:08:00,
2013-01-13 08:09:00,48.2,43.3,29.91,ENE,68,4.6,4.6,83,0.00,CLR,,0.00,WeatherDisplay:10.37,2013-01-13 06:09:00,
2013-01-13 08:13:00,48.4,43.5,29.91,NE,45,3.6,3.6,83,0.00,CLR,,0.00,WeatherDisplay:10.37,2013-01-13 06:13:00,
2013-01-13 08:14:00,48.4,43.5,29.91,NE,45,3.5,3.5,83,0.00,CLR,,0.00,WeatherDisplay:10.37,2013-01-13 06:14:00,
2013-01-13 08:18:00,48.6,43.6,29.91,ENE,68,3.5,3.5,83,0.00,CLR,,0.00,WeatherDisplay:10.37,2013-01-13 06:18:00,
2013-01-13 08:19:00,48.6,43.9,29.91,ENE,68,4.6,4.6,84,0.00,CLR,,0.00,WeatherDisplay:10.37,2013-01-13 06:19:00,
2013-01-13 08:23:00,48.7,44.1,29.91,NNE,22,3.5,3.5,84,0.00,CLR,,0.00,WeatherDisplay:10.37,2013-01-13 06:23:00,
2013-01-13 08:24:00,48.7,44.1,29.91,NNE,22,4.9,4.9,84,0.00,CLR,,0.00,WeatherDisplay:10.37,2013-01-13 06:24:00,
2013-01-13 08:28:00,49.1,44.5,29.91,ENE,68,4.6,4.6,84,0.00,CLR,,0.00,WeatherDisplay:10.37,2013-01-13 06:28:00,
2013-01-13 08:29:00,49.1,44.5,29.91,NE,45,4.6,4.6,84,0.00,CLR,,0.00,WeatherDisplay:10.37,2013-01-13 06:29:00,
2013-01-13 08:30:00,49.1,44.5,29.91,NE,45,4.9,4.9,84,0.00,CLR,,0.00,WeatherDisplay:10.37,2013-01-13 06:30:00,
2013-01-13 08:33:00,49.5,44.8,29.91,NE,45,3.5,3.5,84,0.00,CLR,,0.00,WeatherDisplay:10.37,2013-01-13 06:33:00,
2013-01-13 08:34:00,49.5,44.8,29.91,NE,45,2.4,2.4,84,0.00,CLR,,0.00,WeatherDisplay:10.37,2013-01-13 06:34:00,
2013-01-13 08:35:00,49.5,44.8,29.91,ENE,68,4.6,4.6,84,0.00,CLR,,0.00,WeatherDisplay:10.37,2013-01-13 06:35:00,
2013-01-13 08:38:00,49.5,45.1,29.91,NNE,22,5.8,5.8,85,0.00,CLR,,0.00,WeatherDisplay:10.37,2013-01-13 06:38:00,
2013-01-13 08:39:00,49.5,45.1,29.91,NNE,22,4.6,4.6,85,0.00,CLR,,0.00,WeatherDisplay:10.37,2013-01-13 06:39:00,
2013-01-13 08:40:00,49.6,45.3,29.91,NNE,22,4.6,4.6,85,0.00,CLR,,0.00,WeatherDisplay:10.37,2013-01-13 06:40:00,
2013-01-13 08:44:00,49.8,45.8,29.91,NE,45,6.4,6.4,86,0.00,CLR,,0.00,WeatherDisplay:10.37,2013-01-13 06:44:00,
2013-01-13 08:45:00,50.0,45.7,29.91,ENE,68,6.9,6.9,85,0.00,CLR,,0.00,WeatherDisplay:10.37,2013-01-13 06:45:00,
2013-01-13 08:49:00,50.9,46.9,29.91,ENE,68,4.6,4.6,86,0.00,CLR,,0.00,WeatherDisplay:10.37,2013-01-13 06:49:00,
2013-01-13 08:50:00,51.4,47.1,29.91,ENE,68,6.9,6.9,85,0.00,CLR,,0.00,WeatherDisplay:10.37,2013-01-13 06:50:00,
2013-01-13 08:54:00,51.8,46.8,29.91,NE,45,5.4,5.4,83,0.00,CLR,,0.00,WeatherDisplay:10.37,2013-01-13 06:54:00,
2013-01-13 08:55:00,51.8,46.5,29.91,NE,45,5.8,5.8,82,0.00,CLR,,0.00,WeatherDisplay:10.37,2013-01-13 06:55:00,
2013-01-13 08:59:00,51.6,46.0,29.91,ENE,68,8.1,8.1,81,0.00,CLR,,0.00,WeatherDisplay:10.37,2013-01-13 06:59:00,
2013-01-13 09:00:00,51.4,45.5,29.91,NE,45,8.1,8.1,80,0.00,CLR,,0.00,WeatherDisplay:10.37,2013-01-13 07:00:00,
2013-01-13 09:04:00,51.4,45.8,29.91,NE,45,3.6,3.6,81,0.00,CLR,,0.00,WeatherDisplay:10.37,2013-01-13 07:04:00,
2013-01-13 09:05:00,51.8,46.2,29.91,NE,45,5.8,5.8,81,0.00,CLR,,0.00,WeatherDisplay:10.37,2013-01-13 07:05:00,
2013-01-13 09:06:00,52.0,46.3,29.91,NNE,22,6.0,6.0,81,0.00,CLR,,0.00,WeatherDisplay:10.37,2013-01-13 07:06:00,
2013-01-13 09:09:00,52.5,46.5,29.91,NNE,22,8.1,8.1,80,0.00,CLR,,0.00,WeatherDisplay:10.37,2013-01-13 07:09:00,
2013-01-13 09:10:00,52.7,46.4,29.91,ENE,68,8.1,8.1,79,0.00,CLR,,0.00,WeatherDisplay:10.37,2013-01-13 07:10:00,
2013-01-13 09:11:00,52.7,46.4,29.91,NNE,22,5.8,5.8,79,0.00,CLR,,0.00,WeatherDisplay:10.37,2013-01-13 07:11:00,
2013-01-13 09:14:00,53.1,46.0,29.91,NE,45,6.9,6.9,77,0.00,CLR,,0.00,WeatherDisplay:10.37,2013-01-13 07:14:00,
2013-01-13 09:15:00,53.1,45.7,29.91,ENE,68,6.9,6.9,76,0.00,CLR,,0.00,WeatherDisplay:10.37,2013-01-13 07:15:00,
2013-01-13 09:16:00,53.1,45.7,29.91,NNE,22,5.8,5.8,76,0.00,CLR,,0.00,WeatherDisplay:10.37,2013-01-13 07:16:00,
2013-01-13 09:19:00,53.4,45.3,29.88,NNE,22,8.1,8.1,74,0.00,CLR,,0.00,WeatherDisplay:10.37,2013-01-13 07:19:00,
2013-01-13 09:20:00,53.4,45.0,29.88,NE,45,8.1,8.1,73,0.00,CLR,,0.00,WeatherDisplay:10.37,2013-01-13 07:20:00,
2013-01-13 09:22:00,53.6,44.4,29.88,NNE,22,8.1,8.1,71,0.00,CLR,,0.00,WeatherDisplay:10.37,2013-01-13 07:22:00,
2013-01-13 09:24:00,53.6,44.0,29.88,NE,45,8.1,8.1,70,0.00,CLR,,0.00,WeatherDisplay:10.37,2013-01-13 07:24:00,
2013-01-13 09:26:00,53.6,44.0,29.88,NE,45,4.7,4.7,70,0.00,CLR,,0.00,WeatherDisplay:10.37,2013-01-13 07:26:00,
2013-01-13 09:27:00,54.0,44.0,29.88,ENE,68,5.8,5.8,69,0.00,CLR,,0.00,WeatherDisplay:10.37,2013-01-13 07:27:00,
2013-01-13 09:29:00,54.1,44.2,29.88,ENE,68,4.6,4.6,69,0.00,CLR,,0.00,WeatherDisplay:10.37,2013-01-13 07:29:00,
2013-01-13 09:31:00,54.5,44.9,29.88,ENE,68,3.5,3.5,70,0.00,CLR,,0.00,WeatherDisplay:10.37,2013-01-13 07:31:00,
2013-01-13 09:32:00,54.7,44.3,29.91,NNE,22,5.8,5.8,68,0.00,CLR,,0.00,WeatherDisplay:10.37,2013-01-13 07:32:00,
2013-01-13 09:34:00,54.7,43.5,29.91,NE,45,5.9,5.9,66,0.00,CLR,,0.00,WeatherDisplay:10.37,2013-01-13 07:34:00,
2013-01-13 09:36:00,54.7,43.1,29.91,NE,45,5.8,5.8,65,0.00,CLR,,0.00,WeatherDisplay:10.37,2013-01-13 07:36:00,
2013-01-13 09:37:00,54.7,43.1,29.91,NNE,22,4.7,4.7,65,0.00,CLR,,0.00,WeatherDisplay:10.37,2013-01-13 07:37:00,
2013-01-13 09:39:00,55.0,43.1,29.91,NNE,22,5.8,5.8,64,0.00,CLR,,0.00,WeatherDisplay:10.37,2013-01-13 07:39:00,
2013-01-13 09:41:00,54.9,42.9,29.91,ENE,68,8.1,8.1,64,0.00,CLR,,0.00,WeatherDisplay:10.37,2013-01-13 07:41:00,
2013-01-13 09:43:00,55.0,43.5,29.91,ENE,68,5.8,5.8,65,0.00,CLR,,0.00,WeatherDisplay:10.37,2013-01-13 07:43:00,
2013-01-13 09:44:00,55.4,43.4,29.91,NNE,22,3.5,3.5,64,0.00,CLR,,0.00,WeatherDisplay:10.37,2013-01-13 07:44:00,
2013-01-13 09:46:00,55.8,43.3,29.91,NNE,22,5.8,5.8,63,0.00,CLR,,0.00,WeatherDisplay:10.37,2013-01-13 07:46:00,
2013-01-13 09:47:00,55.9,43.1,29.91,NE,45,5.8,5.8,62,0.00,CLR,,0.00,WeatherDisplay:10.37,2013-01-13 07:47:00,
2013-01-13 09:48:00,55.8,42.9,29.91,NNE,22,5.8,5.8,62,0.00,CLR,,0.00,WeatherDisplay:10.37,2013-01-13 07:48:00,
2013-01-13 09:49:00,55.9,43.1,29.91,NNE,22,5.6,5.6,62,0.00,CLR,,0.00,WeatherDisplay:10.37,2013-01-13 07:49:00,
2013-01-13 09:51:00,55.9,42.7,29.91,NE,45,5.8,5.8,61,0.00,CLR,,0.00,WeatherDisplay:10.37,2013-01-13 07:51:00,
2013-01-13 09:52:00,55.9,42.7,29.91,NE,45,4.3,4.3,61,0.00,CLR,,0.00,WeatherDisplay:10.37,2013-01-13 07:52:00,
2013-01-13 09:53:00,55.9,42.7,29.91,ENE,68,4.7,4.7,61,0.00,CLR,,0.00,WeatherDisplay:10.37,2013-01-13 07:53:00,
2013-01-13 09:54:00,56.3,43.0,29.91,ENE,68,3.5,3.5,61,0.00,CLR,,0.00,WeatherDisplay:10.37,2013-01-13 07:54:00,
2013-01-13 09:56:00,56.7,43.8,29.91,ENE,68,2.3,2.3,62,0.00,CLR,,0.00,WeatherDisplay:10.37,2013-01-13 07:56:00,
2013-01-13 09:57:00,56.8,44.0,29.91,ENE,68,2.3,2.3,62,0.00,CLR,,0.00,WeatherDisplay:10.37,2013-01-13 07:57:00,
2013-01-13 09:58:00,56.8,44.0,29.91,ENE,68,3.3,3.3,62,0.00,CLR,,0.00,WeatherDisplay:10.37,2013-01-13 07:58:00,
2013-01-13 09:59:00,57.2,43.0,29.91,NE,45,5.8,5.8,59,0.00,CLR,,0.00,WeatherDisplay:10.37,2013-01-13 07:59:00,
2013-01-13 10:01:00,57.2,42.5,29.91,NE,45,4.6,4.6,58,0.00,CLR,,0.00,WeatherDisplay:10.37,2013-01-13 08:01:00,
2013-01-13 10:02:00,57.2,42.5,29.91,NE,45,4.6,4.6,58,0.00,CLR,,0.00,WeatherDisplay:10.37,2013-01-13 08:02:00,
2013-01-13 10:03:00,57.2,42.5,29.91,NNE,22,4.6,4.6,58,0.00,CLR,,0.00,WeatherDisplay:10.37,2013-01-13 08:03:00,
2013-01-13 10:04:00,57.2,41.6,29.91,ENE,68,5.8,5.8,56,0.00,CLR,,0.00,WeatherDisplay:10.37,2013-01-13 08:04:00,
2013-01-13 10:06:00,57.0,41.9,29.91,NE,45,5.8,5.8,57,0.00,CLR,,0.00,WeatherDisplay:10.37,2013-01-13 08:06:00,
2013-01-13 10:07:00,57.0,41.9,29.91,NNE,22,5.8,5.8,57,0.00,CLR,,0.00,WeatherDisplay:10.37,2013-01-13 08:07:00,
2013-01-13 10:08:00,57.2,42.1,29.91,NNE,22,3.6,3.6,57,0.00,CLR,,0.00,WeatherDisplay:10.37,2013-01-13 08:08:00,
2013-01-13 10:10:00,57.4,41.8,29.91,NNE,22,5.9,5.9,56,0.00,CLR,,0.00,WeatherDisplay:10.37,2013-01-13 08:10:00,
2013-01-13 10:11:00,57.2,41.6,29.91,NNE,22,5.8,5.8,56,0.00,CLR,,0.00,WeatherDisplay:10.37,2013-01-13 08:11:00,
2013-01-13 10:12:00,57.4,41.8,29.91,NNE,22,4.6,4.6,56,0.00,CLR,,0.00,WeatherDisplay:10.37,2013-01-13 08:12:00,
2013-01-13 10:13:00,57.6,42.0,29.91,NNE,22,3.5,3.5,56,0.00,CLR,,0.00,WeatherDisplay:10.37,2013-01-13 08:13:00,
2013-01-13 10:15:00,57.4,41.8,29.91,NNE,22,6.9,6.9,56,0.00,CLR,,0.00,WeatherDisplay:10.37,2013-01-13 08:15:00,
2013-01-13 10:17:00,57.6,42.0,29.91,NNE,22,6.9,6.9,56,0.00,CLR,,0.00,WeatherDisplay:10.37,2013-01-13 08:17:00,
2013-01-13 10:18:00,57.6,42.0,29.91,NNE,22,4.6,4.6,56,0.00,CLR,,0.00,WeatherDisplay:10.37,2013-01-13 08:18:00,
2013-01-13 10:20:00,57.9,42.3,29.91,NNE,22,3.5,3.5,56,0.00,CLR,,0.00,WeatherDisplay:10.37,2013-01-13 08:20:00,
2013-01-13 10:22:00,58.1,42.0,29.91,NNE,22,4.6,4.6,55,0.00,CLR,,0.00,WeatherDisplay:10.37,2013-01-13 08:22:00,
2013-01-13 10:23:00,58.3,42.2,29.91,NNE,22,3.5,3.5,55,0.00,CLR,,0.00,WeatherDisplay:10.37,2013-01-13 08:23:00,
2013-01-13 10:25:00,58.5,41.9,29.91,NNE,22,4.3,4.3,54,0.00,CLR,,0.00,WeatherDisplay:10.37,2013-01-13 08:25:00,
2013-01-13 10:27:00,58.6,41.5,29.91,NE,45,4.6,4.6,53,0.00,CLR,,0.00,WeatherDisplay:10.37,2013-01-13 08:27:00,
2013-01-13 10:28:00,58.6,41.5,29.91,NNE,22,4.6,4.6,53,0.00,CLR,,0.00,WeatherDisplay:10.37,2013-01-13 08:28:00,
2013-01-13 10:30:00,58.6,41.1,29.91,North,0,5.8,5.8,52,0.00,CLR,,0.00,WeatherDisplay:10.37,2013-01-13 08:30:00,
2013-01-13 10:33:00,58.3,40.2,29.91,NE,45,5.8,5.8,51,0.00,CLR,,0.00,WeatherDisplay:10.37,2013-01-13 08:33:00,
2013-01-13 10:35:00,58.6,41.1,29.91,North,0,3.5,3.5,52,0.00,CLR,,0.00,WeatherDisplay:10.37,2013-01-13 08:35:00,
2013-01-13 10:38:00,58.6,40.0,29.91,North,0,5.8,5.8,50,0.00,CLR,,0.00,WeatherDisplay:10.37,2013-01-13 08:38:00,
2013-01-13 10:40:00,58.6,40.0,29.91,ENE,68,5.8,5.8,50,0.00,CLR,,0.00,WeatherDisplay:10.37,2013-01-13 08:40:00,
2013-01-13 10:43:00,58.8,40.2,29.91,NNE,22,5.8,5.8,50,0.00,CLR,,0.00,WeatherDisplay:10.37,2013-01-13 08:43:00,
2013-01-13 10:44:00,59.0,39.9,29.91,NNE,22,4.6,4.6,49,0.00,CLR,,0.00,WeatherDisplay:10.37,2013-01-13 08:44:00,
2013-01-13 10:45:00,59.0,39.3,29.91,ENE,68,5.8,5.8,48,0.00,CLR,,0.00,WeatherDisplay:10.37,2013-01-13 08:45:00,
2013-01-13 10:48:00,59.0,39.9,29.94,NNE,22,4.6,4.6,49,0.00,CLR,,0.00,WeatherDisplay:10.37,2013-01-13 08:48:00,
2013-01-13 10:49:00,59.2,39.5,29.94,NNE,22,3.5,3.5,48,0.00,CLR,,0.00,WeatherDisplay:10.37,2013-01-13 08:49:00,
2013-01-13 10:50:00,59.4,40.2,29.94,NNE,22,3.6,3.6,49,0.00,CLR,,0.00,WeatherDisplay:10.37,2013-01-13 08:50:00,
2013-01-13 10:53:00,59.4,39.7,29.94,ENE,68,4.6,4.6,48,0.00,CLR,,0.00,WeatherDisplay:10.37,2013-01-13 08:53:00,
2013-01-13 10:54:00,59.4,39.7,29.94,NE,45,3.5,3.5,48,0.00,CLR,,0.00,WeatherDisplay:10.37,2013-01-13 08:54:00,
2013-01-13 10:55:00,59.4,39.7,29.94,NNE,22,3.5,3.5,48,0.00,CLR,,0.00,WeatherDisplay:10.37,2013-01-13 08:55:00,
2013-01-13 10:58:00,58.6,39.0,29.94,NE,45,4.6,4.6,48,0.00,CLR,,0.00,WeatherDisplay:10.37,2013-01-13 08:58:00,
2013-01-13 10:59:00,58.6,39.0,29.94,ENE,68,4.6,4.6,48,0.00,CLR,,0.00,WeatherDisplay:10.37,2013-01-13 08:59:00,
2013-01-13 11:01:00,58.5,38.8,29.94,East,90,4.6,4.6,48,0.00,CLR,,0.00,WeatherDisplay:10.37,2013-01-13 09:01:00,
2013-01-13 11:03:00,58.5,38.8,29.94,ENE,68,2.6,2.6,48,0.00,CLR,,0.00,WeatherDisplay:10.37,2013-01-13 09:03:00,
2013-01-13 11:04:00,58.1,39.0,29.94,NNW,338,2.6,2.6,49,0.00,CLR,,0.00,WeatherDisplay:10.37,2013-01-13 09:04:00,
2013-01-13 11:05:00,58.1,39.0,29.94,NNW,338,2.3,2.3,49,0.00,CLR,,0.00,WeatherDisplay:10.37,2013-01-13 09:05:00,
2013-01-13 11:06:00,58.3,39.2,29.94,NNW,338,4.6,4.6,49,0.00,CLR,,0.00,WeatherDisplay:10.37,2013-01-13 09:06:00,
2013-01-13 11:08:00,58.5,38.8,29.94,NNW,338,4.6,4.6,48,0.00,CLR,,0.00,WeatherDisplay:10.37,2013-01-13 09:08:00,
2013-01-13 11:10:00,59.2,40.0,29.94,NW,315,4.6,4.6,49,0.00,CLR,,0.00,WeatherDisplay:10.37,2013-01-13 09:10:00,
2013-01-13 11:11:00,59.4,40.2,29.94,NNW,338,2.3,2.3,49,0.00,CLR,,0.00,WeatherDisplay:10.37,2013-01-13 09:11:00,
2013-01-13 11:13:00,59.9,40.7,29.94,NNW,338,3.5,3.5,49,0.00,CLR,,0.00,WeatherDisplay:10.37,2013-01-13 09:13:00,
2013-01-13 11:15:00,59.4,39.7,29.94,NNE,22,3.5,3.5,48,0.00,CLR,,0.00,WeatherDisplay:10.37,2013-01-13 09:15:00,
2013-01-13 11:16:00,59.2,39.5,29.94,NNW,338,2.4,2.4,48,0.00,CLR,,0.00,WeatherDisplay:10.37,2013-01-13 09:16:00,
2013-01-13 11:18:00,59.5,40.3,29.94,NNW,338,1.1,1.1,49,0.00,CLR,,0.00,WeatherDisplay:10.37,2013-01-13 09:18:00,
2013-01-13 11:20:00,60.4,41.2,29.94,NW,315,2.3,2.3,49,0.00,CLR,,0.00,WeatherDisplay:10.37,2013-01-13 09:20:00,
2013-01-13 11:21:00,60.6,41.9,29.94,NW,315,1.6,1.6,50,0.00,CLR,,0.00,WeatherDisplay:10.37,2013-01-13 09:21:00,
2013-01-13 11:24:00,61.7,42.3,29.94,NNW,338,2.2,2.2,49,0.00,CLR,,0.00,WeatherDisplay:10.37,2013-01-13 09:24:00,
2013-01-13 11:26:00,62.2,42.8,29.94,NNW,338,0.0,0.0,49,0.00,CLR,,0.00,WeatherDisplay:10.37,2013-01-13 09:26:00,
2013-01-13 11:29:00,62.6,43.2,29.94,SW,225,2.6,2.6,49,0.00,CLR,,0.00,WeatherDisplay:10.37,2013-01-13 09:29:00,
2013-01-13 11:31:00,62.8,42.2,29.94,WSW,248,2.3,2.3,47,0.00,CLR,,0.00,WeatherDisplay:10.37,2013-01-13 09:31:00,
2013-01-13 11:34:00,62.8,42.2,29.94,NNW,338,2.2,2.2,47,0.00,CLR,,0.00,WeatherDisplay:10.37,2013-01-13 09:34:00,
2013-01-13 11:36:00,63.5,42.3,29.94,NNE,22,1.6,1.6,46,0.00,CLR,,0.00,WeatherDisplay:10.37,2013-01-13 09:36:00,
2013-01-13 11:39:00,63.5,41.2,29.94,East,90,3.5,3.5,44,0.00,CLR,,0.00,WeatherDisplay:10.37,2013-01-13 09:39:00,
2013-01-13 11:41:00,63.7,41.9,29.94,ENE,68,2.4,2.4,45,0.00,CLR,,0.00,WeatherDisplay:10.37,2013-01-13 09:41:00,
2013-01-13 11:42:00,63.9,42.1,29.94,ENE,68,2.3,2.3,45,0.00,CLR,,0.00,WeatherDisplay:10.37,2013-01-13 09:42:00,
2013-01-13 11:44:00,64.2,42.4,29.94,NNE,22,2.3,2.3,45,0.00,CLR,,0.00,WeatherDisplay:10.37,2013-01-13 09:44:00,
2013-01-13 11:46:00,64.8,42.3,29.94,NNW,338,2.3,2.3,44,0.00,CLR,,0.00,WeatherDisplay:10.37,2013-01-13 09:46:00,
2013-01-13 11:47:00,64.8,42.3,29.94,WSW,248,2.4,2.4,44,0.00,CLR,,0.00,WeatherDisplay:10.37,2013-01-13 09:47:00,
2013-01-13 11:49:00,63.9,41.5,29.94,NNW,338,2.3,2.3,44,0.00,CLR,,0.00,WeatherDisplay:10.37,2013-01-13 09:49:00,
2013-01-13 11:51:00,64.2,41.8,29.94,NNE,22,1.1,0.0,44,0.00,CLR,,0.00,WeatherDisplay:10.37,2013-01-13 09:51:00,
2013-01-13 11:52:00,64.2,41.8,29.94,ENE,68,1.6,0.0,44,0.00,CLR,,0.00,WeatherDisplay:10.37,2013-01-13 09:52:00,
2013-01-13 11:55:00,64.8,40.5,29.94,NE,45,1.1,0.0,41,0.00,CLR,,0.00,WeatherDisplay:10.37,2013-01-13 09:55:00,
2013-01-13 11:56:00,64.8,40.5,29.94,West,270,1.4,1.4,41,0.00,CLR,,0.00,WeatherDisplay:10.37,2013-01-13 09:56:00,
2013-01-13 11:57:00,64.8,40.5,29.94,WSW,248,3.5,3.5,41,0.00,CLR,,0.00,WeatherDisplay:10.37,2013-01-13 09:57:00,
2013-01-13 12:00:00,64.8,40.5,29.94,NNE,22,2.3,2.3,41,0.00,CLR,,0.00,WeatherDisplay:10.37,2013-01-13 10:00:00,
2013-01-13 12:01:00,64.8,40.5,29.94,NNE,22,2.3,2.3,41,0.00,CLR,,0.00,WeatherDisplay:10.37,2013-01-13 10:01:00,
2013-01-13 12:02:00,64.8,39.2,29.94,SSE,158,1.1,0.0,39,0.00,CLR,,0.00,WeatherDisplay:10.37,2013-01-13 10:02:00,
2013-01-13 12:03:00,64.8,38.5,29.94,South,180,2.6,2.6,38,0.00,CLR,,0.00,WeatherDisplay:10.37,2013-01-13 10:03:00,
2013-01-13 12:05:00,64.0,37.9,29.94,SSW,202,2.3,2.3,38,0.00,CLR,,0.00,WeatherDisplay:10.37,2013-01-13 10:05:00,
2013-01-13 12:06:00,64.2,38.1,29.94,SSW,202,1.1,0.0,38,0.00,CLR,,0.00,WeatherDisplay:10.37,2013-01-13 10:06:00,
2013-01-13 12:07:00,64.6,39.0,29.94,WNW,292,3.1,3.1,39,0.00,CLR,,0.00,WeatherDisplay:10.37,2013-01-13 10:07:00,
2013-01-13 12:08:00,64.2,37.4,29.94,WSW,248,4.6,4.6,37,0.00,CLR,,0.00,WeatherDisplay:10.37,2013-01-13 10:08:00,
2013-01-13 12:10:00,63.9,36.4,29.94,West,270,4.7,4.7,36,0.00,CLR,,0.00,WeatherDisplay:10.37,2013-01-13 10:10:00,
2013-01-13 12:11:00,63.1,36.4,29.94,WSW,248,5.8,5.8,37,0.00,CLR,,0.00,WeatherDisplay:10.37,2013-01-13 10:11:00,
2013-01-13 12:12:00,63.1,36.4,29.94,SSW,202,5.8,5.8,37,0.00,CLR,,0.00,WeatherDisplay:10.37,2013-01-13 10:12:00,
2013-01-13 12:13:00,63.5,36.7,29.94,SSE,158,6.9,6.9,37,0.00,CLR,,0.00,WeatherDisplay:10.37,2013-01-13 10:13:00,
2013-01-13 12:15:00,63.0,35.6,29.94,South,180,4.6,4.6,36,0.00,CLR,,0.00,WeatherDisplay:10.37,2013-01-13 10:15:00,
2013-01-13 12:17:00,62.6,35.9,29.91,WSW,248,4.6,4.6,37,0.00,CLR,,0.00,WeatherDisplay:10.37,2013-01-13 10:17:00,
2013-01-13 12:18:00,62.6,35.9,29.91,South,180,4.6,4.6,37,0.00,CLR,,0.00,WeatherDisplay:10.37,2013-01-13 10:18:00,
2013-01-13 12:20:00,61.9,36.0,29.91,South,180,5.8,5.8,38,0.00,CLR,,0.00,WeatherDisplay:10.37,2013-01-13 10:20:00,
2013-01-13 12:22:00,61.9,36.0,29.91,SSW,202,2.3,2.3,38,0.00,CLR,,0.00,WeatherDisplay:10.37,2013-01-13 10:22:00,
2013-01-13 12:23:00,62.2,36.3,29.91,SSW,202,3.8,3.8,38,0.00,CLR,,0.00,WeatherDisplay:10.37,2013-01-13 10:23:00,
2013-01-13 12:25:00,61.9,36.0,29.91,SW,225,3.5,3.5,38,0.00,CLR,,0.00,WeatherDisplay:10.37,2013-01-13 10:25:00,
2013-01-13 12:27:00,62.1,36.8,29.91,WSW,248,5.4,5.4,39,0.00,CLR,,0.00,WeatherDisplay:10.37,2013-01-13 10:27:00,
2013-01-13 12:28:00,62.1,36.1,29.91,SSW,202,5.8,5.8,38,0.00,CLR,,0.00,WeatherDisplay:10.37,2013-01-13 10:28:00,
2013-01-13 12:30:00,62.2,36.3,29.91,WSW,248,5.8,5.8,38,0.00,CLR,,0.00,WeatherDisplay:10.37,2013-01-13 10:30:00,
2013-01-13 12:32:00,62.1,36.1,29.91,WSW,248,4.6,4.6,38,0.00,CLR,,0.00,WeatherDisplay:10.37,2013-01-13 10:32:00,
2013-01-13 12:33:00,61.9,36.0,29.91,South,180,5.8,5.8,38,0.00,CLR,,0.00,WeatherDisplay:10.37,2013-01-13 10:33:00,
2013-01-13 12:35:00,61.9,36.6,29.91,SW,225,5.6,5.6,39,0.00,CLR,,0.00,WeatherDisplay:10.37,2013-01-13 10:35:00,
2013-01-13 12:37:00,61.9,36.0,29.91,SSW,202,5.8,5.8,38,0.00,CLR,,0.00,WeatherDisplay:10.37,2013-01-13 10:37:00,
2013-01-13 12:38:00,61.9,36.0,29.91,WSW,248,4.6,4.6,38,0.00,CLR,,0.00,WeatherDisplay:10.37,2013-01-13 10:38:00,
2013-01-13 12:41:00,61.3,35.5,29.91,WSW,248,5.8,5.8,38,0.00,CLR,,0.00,WeatherDisplay:10.37,2013-01-13 10:41:00,
2013-01-13 12:42:00,61.2,35.3,29.91,WSW,248,5.8,5.8,38,0.00,CLR,,0.00,WeatherDisplay:10.37,2013-01-13 10:42:00,
2013-01-13 12:43:00,61.2,36.0,29.91,WSW,248,5.9,5.9,39,0.00,CLR,,0.00,WeatherDisplay:10.37,2013-01-13 10:43:00,
2013-01-13 12:46:00,61.2,36.0,29.91,West,270,6.9,6.9,39,0.00,CLR,,0.00,WeatherDisplay:10.37,2013-01-13 10:46:00,
2013-01-13 12:47:00,61.0,35.8,29.91,WSW,248,4.6,4.6,39,0.00,CLR,,0.00,WeatherDisplay:10.37,2013-01-13 10:47:00,
2013-01-13 12:48:00,60.8,35.7,29.91,WSW,248,5.8,5.8,39,0.00,CLR,,0.00,WeatherDisplay:10.37,2013-01-13 10:48:00,
2013-01-13 12:51:00,61.2,36.6,29.91,SSW,202,4.6,4.6,40,0.00,CLR,,0.00,WeatherDisplay:10.37,2013-01-13 10:51:00,
2013-01-13 12:52:00,61.0,35.8,29.91,SSW,202,6.4,6.4,39,0.00,CLR,,0.00,WeatherDisplay:10.37,2013-01-13 10:52:00,
2013-01-13 12:54:00,61.0,36.5,29.91,WSW,248,6.9,6.9,40,0.00,CLR,,0.00,WeatherDisplay:10.37,2013-01-13 10:54:00,
2013-01-13 12:56:00,60.8,35.0,29.91,SSW,202,5.8,5.8,38,0.00,CLR,,0.00,WeatherDisplay:10.37,2013-01-13 10:56:00,
2013-01-13 12:57:00,60.6,35.5,29.91,WSW,248,5.8,5.8,39,0.00,CLR,,0.00,WeatherDisplay:10.37,2013-01-13 10:57:00,
2013-01-13 12:59:00,60.6,35.5,29.91,West,270,4.6,4.6,39,0.00,CLR,,0.00,WeatherDisplay:10.37,2013-01-13 10:59:00,
2013-01-13 13:01:00,61.2,36.6,29.91,SSW,202,4.6,4.6,40,0.00,CLR,,0.00,WeatherDisplay:10.37,2013-01-13 11:01:00,
2013-01-13 13:02:00,61.5,36.3,29.91,SSW,202,3.6,3.6,39,0.00,CLR,,0.00,WeatherDisplay:10.37,2013-01-13 11:02:00,
2013-01-13 13:03:00,61.5,36.3,29.91,SSW,202,3.6,3.6,39,0.00,CLR,,0.00,WeatherDisplay:10.37,2013-01-13 11:03:00,
2013-01-13 13:04:00,61.3,36.2,29.91,SSW,202,6.9,6.9,39,0.00,CLR,,0.00,WeatherDisplay:10.37,2013-01-13 11:04:00,
2013-01-13 13:06:00,61.3,36.2,29.91,SW,225,3.5,3.5,39,0.00,CLR,,0.00,WeatherDisplay:10.37,2013-01-13 11:06:00,
2013-01-13 13:07:00,61.7,36.5,29.91,South,180,5.6,5.6,39,0.00,CLR,,0.00,WeatherDisplay:10.37,2013-01-13 11:07:00,
2013-01-13 13:08:00,61.5,35.0,29.91,SSW,202,8.1,8.1,37,0.00,CLR,,0.00,WeatherDisplay:10.37,2013-01-13 11:08:00,
2013-01-13 13:09:00,61.2,34.7,29.91,SSW,202,5.8,5.8,37,0.00,CLR,,0.00,WeatherDisplay:10.37,2013-01-13 11:09:00,
2013-01-13 13:11:00,61.3,34.8,29.91,SW,225,4.6,4.6,37,0.00,CLR,,0.00,WeatherDisplay:10.37,2013-01-13 11:11:00,
2013-01-13 13:12:00,61.2,34.7,29.91,SW,225,4.6,4.6,37,0.00,CLR,,0.00,WeatherDisplay:10.37,2013-01-13 11:12:00,
2013-01-13 13:13:00,61.2,34.7,29.91,South,180,5.8,5.8,37,0.00,CLR,,0.00,WeatherDisplay:10.37,2013-01-13 11:13:00,
2013-01-13 13:14:00,61.0,34.5,29.91,WSW,248,4.6,4.6,37,0.00,CLR,,0.00,WeatherDisplay:10.37,2013-01-13 11:14:00,
2013-01-13 13:16:00,61.0,35.2,29.91,SSW,202,5.8,5.8,38,0.00,CLR,,0.00,WeatherDisplay:10.37,2013-01-13 11:16:00,
2013-01-13 13:18:00,61.2,35.3,29.91,SW,225,3.5,3.5,38,0.00,CLR,,0.00,WeatherDisplay:10.37,2013-01-13 11:18:00,
2013-01-13 13:19:00,61.2,35.3,29.91,SSW,202,4.9,4.9,38,0.00,CLR,,0.00,WeatherDisplay:10.37,2013-01-13 11:19:00,
2013-01-13 13:21:00,61.0,35.2,29.91,WSW,248,3.5,3.5,38,0.00,CLR,,0.00,WeatherDisplay:10.37,2013-01-13 11:21:00,
2013-01-13 13:23:00,61.0,35.2,29.91,WSW,248,5.9,5.9,38,0.00,CLR,,0.00,WeatherDisplay:10.37,2013-01-13 11:23:00,
2013-01-13 13:24:00,61.0,35.8,29.91,SW,225,5.8,5.8,39,0.00,CLR,,0.00,WeatherDisplay:10.37,2013-01-13 11:24:00,
2013-01-13 13:27:00,61.3,36.2,29.91,WSW,248,3.5,3.5,39,0.00,CLR,,0.00,WeatherDisplay:10.37,2013-01-13 11:27:00,
2013-01-13 13:28:00,61.3,36.2,29.91,West,270,4.6,4.6,39,0.00,CLR,,0.00,WeatherDisplay:10.37,2013-01-13 11:28:00,
2013-01-13 13:29:00,61.3,36.2,29.91,West,270,4.6,4.6,39,0.00,CLR,,0.00,WeatherDisplay:10.37,2013-01-13 11:29:00,
2013-01-13 13:32:00,61.2,35.3,29.91,WSW,248,5.8,5.8,38,0.00,CLR,,0.00,WeatherDisplay:10.37,2013-01-13 11:32:00,
2013-01-13 13:34:00,61.3,35.5,29.91,WSW,248,4.6,4.6,38,0.00,CLR,,0.00,WeatherDisplay:10.37,2013-01-13 11:34:00,
2013-01-13 13:35:00,61.5,36.3,29.91,WSW,248,5.9,5.9,39,0.00,CLR,,0.00,WeatherDisplay:10.37,2013-01-13 11:35:00,
2013-01-13 13:38:00,61.2,36.0,29.91,WSW,248,3.5,3.5,39,0.00,CLR,,0.00,WeatherDisplay:10.37,2013-01-13 11:38:00,
2013-01-13 13:39:00,61.3,36.8,29.91,South,180,3.5,3.5,40,0.00,CLR,,0.00,WeatherDisplay:10.37,2013-01-13 11:39:00,
2013-01-13 13:40:00,61.3,36.8,29.91,South,180,2.3,2.6,40,0.00,CLR,,0.00,WeatherDisplay:10.37,2013-01-13 11:40:00,
2013-01-13 13:43:00,61.5,36.3,29.91,WSW,248,5.8,5.8,39,0.00,CLR,,0.00,WeatherDisplay:10.37,2013-01-13 11:43:00,
2013-01-13 13:44:00,61.3,36.2,29.91,SSW,202,3.5,3.5,39,0.00,CLR,,0.00,WeatherDisplay:10.37,2013-01-13 11:44:00,
2013-01-13 13:45:00,61.5,36.3,29.91,SSW,202,2.3,2.3,39,0.00,CLR,,0.00,WeatherDisplay:10.37,2013-01-13 11:45:00,
2013-01-13 13:48:00,61.9,36.6,29.91,SSW,202,4.6,4.6,39,0.00,CLR,,0.00,WeatherDisplay:10.37,2013-01-13 11:48:00,
2013-01-13 13:49:00,61.9,36.0,29.91,SSW,202,2.3,2.3,38,0.00,CLR,,0.00,WeatherDisplay:10.37,2013-01-13 11:49:00,
2013-01-13 13:50:00,62.2,37.0,29.91,SSW,202,2.3,2.3,39,0.00,CLR,,0.00,WeatherDisplay:10.37,2013-01-13 11:50:00,
2013-01-13 13:53:00,62.4,36.5,29.91,South,180,3.5,3.5,38,0.00,CLR,,0.00,WeatherDisplay:10.37,2013-01-13 11:53:00,
2013-01-13 13:54:00,62.2,36.3,29.91,SSE,158,6.0,6.0,38,0.00,CLR,,0.00,WeatherDisplay:10.37,2013-01-13 11:54:00,
2013-01-13 13:55:00,62.2,36.3,29.91,SSW,194,2.0,6.0,38,0.00,CLR,,0.00,WeatherDisplay:10.37,2013-01-13 11:55:00,
2013-01-13 13:56:00,62.1,36.1,29.91,SSW,202,5.8,5.8,38,0.00,CLR,,0.00,WeatherDisplay:10.37,2013-01-13 11:56:00,
2013-01-13 13:58:00,62.1,36.1,29.91,SSW,202,5.8,5.8,38,0.00,CLR,,0.00,WeatherDisplay:10.37,2013-01-13 11:58:00,
2013-01-13 13:59:00,61.9,35.3,29.91,WSW,248,4.6,4.6,37,0.00,CLR,,0.00,WeatherDisplay:10.37,2013-01-13 11:59:00,
2013-01-13 14:00:00,61.9,36.0,29.91,WSW,248,3.5,3.5,38,0.00,CLR,,0.00,WeatherDisplay:10.37,2013-01-13 12:00:00,
2013-01-13 14:01:00,61.9,36.0,29.91,WSW,248,5.8,5.8,38,0.00,CLR,,0.00,WeatherDisplay:10.37,2013-01-13 12:01:00,
2013-01-13 14:03:00,61.3,34.8,29.91,WSW,248,6.9,6.9,37,0.00,CLR,,0.00,WeatherDisplay:10.37,2013-01-13 12:03:00,
2013-01-13 14:04:00,61.3,35.5,29.91,SW,225,6.0,6.0,38,0.00,CLR,,0.00,WeatherDisplay:10.37,2013-01-13 12:04:00,
2013-01-13 14:05:00,61.3,35.5,29.91,SW,225,5.8,5.8,38,0.00,CLR,,0.00,WeatherDisplay:10.37,2013-01-13 12:05:00,
2013-01-13 14:06:00,61.5,35.7,29.91,WSW,248,2.3,2.3,38,0.00,CLR,,0.00,WeatherDisplay:10.37,2013-01-13 12:06:00,
2013-01-13 14:08:00,61.9,36.0,29.91,SSW,202,3.1,3.1,38,0.00,CLR,,0.00,WeatherDisplay:10.37,2013-01-13 12:08:00,
2013-01-13 14:09:00,62.1,36.1,29.91,SSW,202,3.5,3.5,38,0.00,CLR,,0.00,WeatherDisplay:10.37,2013-01-13 12:09:00,
2013-01-13 14:10:00,61.9,35.3,29.91,SSW,202,5.8,5.8,37,0.00,CLR,,0.00,WeatherDisplay:10.37,2013-01-13 12:10:00,
2013-01-13 14:11:00,61.9,35.3,29.91,SSW,202,3.5,3.5,37,0.00,CLR,,0.00,WeatherDisplay:10.37,2013-01-13 12:11:00,
2013-01-13 14:13:00,61.9,36.0,29.91,SW,225,2.9,2.9,38,0.00,CLR,,0.00,WeatherDisplay:10.37,2013-01-13 12:13:00,
2013-01-13 14:14:00,62.4,36.5,29.91,SSW,202,3.3,3.3,38,0.00,CLR,,0.00,WeatherDisplay:10.37,2013-01-13 12:14:00,
2013-01-13 14:15:00,62.4,35.8,29.91,WSW,248,3.5,3.5,37,0.00,CLR,,0.00,WeatherDisplay:10.37,2013-01-13 12:15:00,
2013-01-13 14:16:00,62.4,35.8,29.91,West,270,3.5,3.5,37,0.00,CLR,,0.00,WeatherDisplay:10.37,2013-01-13 12:16:00,
2013-01-13 14:18:00,62.8,35.4,29.91,WNW,292,3.5,3.5,36,0.00,CLR,,0.00,WeatherDisplay:10.37,2013-01-13 12:18:00,
2013-01-13 14:19:00,63.0,35.6,29.91,WNW,292,3.5,3.5,36,0.00,CLR,,0.00,WeatherDisplay:10.37,2013-01-13 12:19:00,
2013-01-13 14:20:00,63.0,35.6,29.91,WSW,248,3.5,3.5,36,0.00,CLR,,0.00,WeatherDisplay:10.37,2013-01-13 12:20:00,
2013-01-13 14:21:00,62.6,34.5,29.91,WSW,248,4.9,4.9,35,0.00,CLR,,0.00,WeatherDisplay:10.37,2013-01-13 12:21:00,
2013-01-13 14:24:00,62.4,35.1,29.91,WSW,248,3.5,3.5,36,0.00,CLR,,0.00,WeatherDisplay:10.37,2013-01-13 12:24:00,
2013-01-13 14:25:00,62.2,34.9,29.91,WSW,248,4.6,4.6,36,0.00,CLR,,0.00,WeatherDisplay:10.37,2013-01-13 12:25:00,
2013-01-13 14:26:00,62.4,35.1,29.91,WSW,248,3.5,3.5,36,0.00,CLR,,0.00,WeatherDisplay:10.37,2013-01-13 12:26:00,
2013-01-13 14:29:00,63.1,35.0,29.91,WSW,248,3.6,3.6,35,0.00,CLR,,0.00,WeatherDisplay:10.37,2013-01-13 12:29:00,
2013-01-13 14:30:00,63.0,34.9,29.91,West,270,3.5,3.5,35,0.00,CLR,,0.00,WeatherDisplay:10.37,2013-01-13 12:30:00,
2013-01-13 14:31:00,63.0,35.6,29.91,WNW,292,2.3,2.3,36,0.00,CLR,,0.00,WeatherDisplay:10.37,2013-01-13 12:31:00,
2013-01-13 14:34:00,63.7,36.2,29.91,WSW,248,1.1,1.1,36,0.00,CLR,,0.00,WeatherDisplay:10.37,2013-01-13 12:34:00,
2013-01-13 14:35:00,63.7,36.2,29.91,SW,225,1.4,1.4,36,0.00,CLR,,0.00,WeatherDisplay:10.37,2013-01-13 12:35:00,
2013-01-13 14:36:00,63.5,36.0,29.91,SW,225,2.3,2.3,36,0.00,CLR,,0.00,WeatherDisplay:10.37,2013-01-13 12:36:00,
2013-01-13 14:39:00,63.3,35.2,29.91,SSE,158,3.5,3.5,35,0.00,CLR,,0.00,WeatherDisplay:10.37,2013-01-13 12:39:00,
2013-01-13 14:40:00,63.3,35.2,29.91,SW,225,3.5,3.5,35,0.00,CLR,,0.00,WeatherDisplay:10.37,2013-01-13 12:40:00,
2013-01-13 14:41:00,63.3,35.2,29.91,SSE,158,3.5,3.5,35,0.00,CLR,,0.00,WeatherDisplay:10.37,2013-01-13 12:41:00,
2013-01-13 14:44:00,63.0,34.9,29.91,South,180,5.8,5.8,35,0.00,CLR,,0.00,WeatherDisplay:10.37,2013-01-13 12:44:00,
2013-01-13 14:45:00,62.6,34.5,29.91,SSW,202,2.3,2.3,35,0.00,CLR,,0.00,WeatherDisplay:10.37,2013-01-13 12:45:00,
2013-01-13 14:46:00,62.8,35.4,29.91,SSW,202,2.3,2.3,36,0.00,CLR,,0.00,WeatherDisplay:10.37,2013-01-13 12:46:00,
2013-01-13 14:47:00,63.0,35.6,29.91,SSW,202,3.1,3.1,36,0.00,CLR,,0.00,WeatherDisplay:10.37,2013-01-13 12:47:00,
2013-01-13 14:49:00,62.8,34.7,29.91,SSW,202,3.5,3.5,35,0.00,CLR,,0.00,WeatherDisplay:10.37,2013-01-13 12:49:00,
2013-01-13 14:50:00,62.8,34.7,29.91,SSW,202,3.5,3.5,35,0.00,CLR,,0.00,WeatherDisplay:10.37,2013-01-13 12:50:00,
2013-01-13 14:52:00,62.4,35.1,29.91,South,180,4.7,4.7,36,0.00,CLR,,0.00,WeatherDisplay:10.37,2013-01-13 12:52:00,
2013-01-13 14:54:00,62.4,35.1,29.91,SSW,202,1.4,2.2,36,0.00,CLR,,0.00,WeatherDisplay:10.37,2013-01-13 12:54:00,
2013-01-13 14:55:00,62.6,34.5,29.91,SSW,202,3.5,3.5,35,0.00,CLR,,0.00,WeatherDisplay:10.37,2013-01-13 12:55:00,
2013-01-13 14:57:00,62.6,35.3,29.91,SSW,202,2.3,2.3,36,0.00,CLR,,0.00,WeatherDisplay:10.37,2013-01-13 12:57:00,
2013-01-13 14:59:00,62.4,35.1,29.91,SSE,158,5.8,5.8,36,0.00,CLR,,0.00,WeatherDisplay:10.37,2013-01-13 12:59:00,
2013-01-13 15:00:00,62.2,34.9,29.91,SSW,202,4.6,4.6,36,0.00,CLR,,0.00,WeatherDisplay:10.37,2013-01-13 13:00:00,
2013-01-13 15:02:00,62.1,34.8,29.91,SSE,158,3.5,3.5,36,0.00,CLR,,0.00,WeatherDisplay:10.37,2013-01-13 13:02:00,
2013-01-13 15:04:00,62.1,34.8,29.91,South,180,4.6,4.6,36,0.00,CLR,,0.00,WeatherDisplay:10.37,2013-01-13 13:04:00,
2013-01-13 15:05:00,61.9,34.6,29.91,South,180,4.6,4.6,36,0.00,CLR,,0.00,WeatherDisplay:10.37,2013-01-13 13:05:00,
2013-01-13 15:07:00,62.1,34.8,29.91,South,180,2.3,2.3,36,0.00,CLR,,0.00,WeatherDisplay:10.37,2013-01-13 13:07:00,
2013-01-13 15:08:00,62.1,34.8,29.91,South,180,2.3,2.3,36,0.00,CLR,,0.00,WeatherDisplay:10.37,2013-01-13 13:08:00,
2013-01-13 15:09:00,62.1,34.8,29.91,WSW,248,4.6,4.6,36,0.00,CLR,,0.00,WeatherDisplay:10.37,2013-01-13 13:09:00,
2013-01-13 15:10:00,61.9,34.6,29.91,South,180,4.6,4.6,36,0.00,CLR,,0.00,WeatherDisplay:10.37,2013-01-13 13:10:00,
2013-01-13 15:12:00,61.7,34.5,29.91,SE,135,4.6,4.6,36,0.00,CLR,,0.00,WeatherDisplay:10.37,2013-01-13 13:12:00,
2013-01-13 15:13:00,61.7,34.5,29.91,SE,135,4.6,4.6,36,0.00,CLR,,0.00,WeatherDisplay:10.37,2013-01-13 13:13:00,
2013-01-13 15:14:00,61.7,34.5,29.91,SSE,158,4.6,4.6,36,0.00,CLR,,0.00,WeatherDisplay:10.37,2013-01-13 13:14:00,
2013-01-13 15:15:00,61.3,34.1,29.91,SSE,158,4.3,4.3,36,0.00,CLR,,0.00,WeatherDisplay:10.37,2013-01-13 13:15:00,
2013-01-13 15:17:00,61.0,34.5,29.91,SSW,202,6.9,6.9,37,0.00,CLR,,0.00,WeatherDisplay:10.37,2013-01-13 13:17:00,
2013-01-13 15:18:00,60.6,34.9,29.91,SSW,202,4.6,5.9,38,0.00,CLR,,0.00,WeatherDisplay:10.37,2013-01-13 13:18:00,
2013-01-13 15:19:00,60.6,34.9,29.91,South,180,3.8,3.8,38,0.00,CLR,,0.00,WeatherDisplay:10.37,2013-01-13 13:19:00,
2013-01-13 15:21:00,60.4,35.3,29.91,SSW,202,3.6,3.6,39,0.00,CLR,,0.00,WeatherDisplay:10.37,2013-01-13 13:21:00,
2013-01-13 15:23:00,60.4,36.0,29.91,SW,225,3.5,3.5,40,0.00,CLR,,0.00,WeatherDisplay:10.37,2013-01-13 13:23:00,
2013-01-13 15:24:00,60.4,36.0,29.91,South,180,4.6,4.6,40,0.00,CLR,,0.00,WeatherDisplay:10.37,2013-01-13 13:24:00,
2013-01-13 15:26:00,60.6,36.8,29.91,SSW,202,3.5,3.5,41,0.00,CLR,,0.00,WeatherDisplay:10.37,2013-01-13 13:26:00,
2013-01-13 15:28:00,60.6,36.8,29.91,SSW,202,3.5,3.5,41,0.00,CLR,,0.00,WeatherDisplay:10.37,2013-01-13 13:28:00,
2013-01-13 15:29:00,60.4,37.2,29.91,SSE,158,5.8,5.8,42,0.00,CLR,,0.00,WeatherDisplay:10.37,2013-01-13 13:29:00,
2013-01-13 15:31:00,60.4,37.8,29.91,ESE,112,4.7,4.7,43,0.00,CLR,,0.00,WeatherDisplay:10.37,2013-01-13 13:31:00,
2013-01-13 15:33:00,60.1,37.5,29.94,SSE,158,6.9,6.9,43,0.00,CLR,,0.00,WeatherDisplay:10.37,2013-01-13 13:33:00,
2013-01-13 15:34:00,60.1,38.1,29.94,SE,135,6.0,6.0,44,0.00,CLR,,0.00,WeatherDisplay:10.37,2013-01-13 13:34:00,
2013-01-13 15:36:00,59.9,37.9,29.94,SSE,158,5.8,5.8,44,0.00,CLR,,0.00,WeatherDisplay:10.37,2013-01-13 13:36:00,
2013-01-13 15:38:00,59.9,38.5,29.94,South,180,5.8,5.8,45,0.00,CLR,,0.00,WeatherDisplay:10.37,2013-01-13 13:38:00,
2013-01-13 15:40:00,60.1,38.7,29.94,South,180,2.4,2.4,45,0.00,CLR,,0.00,WeatherDisplay:10.37,2013-01-13 13:40:00,
2013-01-13 15:41:00,60.1,38.7,29.94,SSE,158,3.5,3.5,45,0.00,CLR,,0.00,WeatherDisplay:10.37,2013-01-13 13:41:00,
2013-01-13 15:43:00,59.5,38.2,29.94,SSW,202,6.9,6.9,45,0.00,CLR,,0.00,WeatherDisplay:10.37,2013-01-13 13:43:00,
2013-01-13 15:44:00,59.5,38.2,29.94,SSW,202,6.9,6.9,45,0.00,CLR,,0.00,WeatherDisplay:10.37,2013-01-13 13:44:00,
2013-01-13 15:45:00,59.5,38.2,29.94,South,180,4.6,4.6,45,0.00,CLR,,0.00,WeatherDisplay:10.37,2013-01-13 13:45:00,
2013-01-13 15:46:00,59.5,38.2,29.94,South,180,5.8,5.8,45,0.00,CLR,,0.00,WeatherDisplay:10.37,2013-01-13 13:46:00,
2013-01-13 15:48:00,59.5,38.2,29.94,SSW,202,3.5,3.5,45,0.00,CLR,,0.00,WeatherDisplay:10.37,2013-01-13 13:48:00,
2013-01-13 15:49:00,59.5,38.2,29.94,SSW,202,3.5,3.5,45,0.00,CLR,,0.00,WeatherDisplay:10.37,2013-01-13 13:49:00,
2013-01-13 15:50:00,59.7,38.3,29.94,SSW,202,2.3,2.3,45,0.00,CLR,,0.00,WeatherDisplay:10.37,2013-01-13 13:50:00,
2013-01-13 15:51:00,59.9,38.5,29.94,SSW,202,3.5,3.5,45,0.00,CLR,,0.00,WeatherDisplay:10.37,2013-01-13 13:51:00,
2013-01-13 15:53:00,60.3,38.8,29.94,ESE,112,2.3,2.3,45,0.00,CLR,,0.00,WeatherDisplay:10.37,2013-01-13 13:53:00,
2013-01-13 15:54:00,60.3,38.8,29.94,ESE,112,3.3,3.3,45,0.00,CLR,,0.00,WeatherDisplay:10.37,2013-01-13 13:54:00,
2013-01-13 15:55:00,60.6,39.1,29.94,ESE,112,3.5,3.5,45,0.00,CLR,,0.00,WeatherDisplay:10.37,2013-01-13 13:55:00,
2013-01-13 15:56:00,60.4,37.8,29.94,ENE,68,3.8,3.8,43,0.00,CLR,,0.00,WeatherDisplay:10.37,2013-01-13 13:56:00,
2013-01-13 15:59:00,60.6,38.0,29.94,East,90,5.8,5.8,43,0.00,CLR,,0.00,WeatherDisplay:10.37,2013-01-13 13:59:00,
2013-01-13 16:00:00,60.4,37.2,29.94,ENE,68,5.8,5.8,42,0.00,CLR,,0.00,WeatherDisplay:10.37,2013-01-13 14:00:00,
2013-01-13 16:01:00,60.4,37.2,29.94,SSE,158,3.5,3.5,42,0.00,CLR,,0.00,WeatherDisplay:10.37,2013-01-13 14:01:00,
2013-01-13 16:04:00,60.6,38.0,29.91,NE,45,3.5,3.5,43,0.00,CLR,,0.00,WeatherDisplay:10.37,2013-01-13 14:04:00,
2013-01-13 16:05:00,60.3,37.7,29.91,ENE,68,5.8,5.8,43,0.00,CLR,,0.00,WeatherDisplay:10.37,2013-01-13 14:05:00,
2013-01-13 16:06:00,60.3,37.7,29.91,NE,45,6.9,6.9,43,0.00,CLR,,0.00,WeatherDisplay:10.37,2013-01-13 14:06:00,
2013-01-13 16:09:00,60.3,38.2,29.91,ENE,68,5.8,5.8,44,0.00,CLR,,0.00,WeatherDisplay:10.37,2013-01-13 14:09:00,
2013-01-13 16:10:00,60.1,38.1,29.91,NNE,22,6.0,6.0,44,0.00,CLR,,0.00,WeatherDisplay:10.37,2013-01-13 14:10:00,
2013-01-13 16:11:00,59.9,37.9,29.91,ENE,68,7.6,7.6,44,0.00,CLR,,0.00,WeatherDisplay:10.37,2013-01-13 14:11:00,
2013-01-13 16:14:00,59.4,37.4,29.91,ENE,68,6.9,6.9,44,0.00,CLR,,0.00,WeatherDisplay:10.37,2013-01-13 14:14:00,
2013-01-13 16:15:00,59.4,37.4,29.91,East,90,8.1,8.1,44,0.00,CLR,,0.00,WeatherDisplay:10.37,2013-01-13 14:15:00,
2013-01-13 16:17:00,59.4,37.4,29.94,ENE,68,3.5,4.5,44,0.00,CLR,,0.00,WeatherDisplay:10.37,2013-01-13 14:17:00,
2013-01-13 16:19:00,59.2,37.8,29.94,NE,45,8.1,8.1,45,0.00,CLR,,0.00,WeatherDisplay:10.37,2013-01-13 14:19:00,
2013-01-13 16:20:00,59.0,37.7,29.94,NE,45,8.1,8.1,45,0.00,CLR,,0.00,WeatherDisplay:10.37,2013-01-13 14:20:00,
2013-01-13 16:21:00,59.0,37.7,29.94,NNE,22,8.1,8.1,45,0.00,CLR,,0.00,WeatherDisplay:10.37,2013-01-13 14:21:00,
2013-01-13 16:22:00,58.8,38.1,29.94,NNE,22,6.9,6.9,46,0.00,CLR,,0.00,WeatherDisplay:10.37,2013-01-13 14:22:00,
2013-01-13 16:24:00,58.8,38.1,29.94,NNE,22,6.9,6.9,46,0.00,CLR,,0.00,WeatherDisplay:10.37,2013-01-13 14:24:00,
2013-01-13 16:26:00,58.6,37.9,29.94,East,90,9.2,9.2,46,0.00,CLR,,0.00,WeatherDisplay:10.37,2013-01-13 14:26:00,
2013-01-13 16:27:00,58.8,38.1,29.94,East,90,5.9,5.9,46,0.00,CLR,,0.00,WeatherDisplay:10.37,2013-01-13 14:27:00,
2013-01-13 16:29:00,58.6,37.9,29.94,East,90,4.6,4.6,46,0.00,CLR,,0.00,WeatherDisplay:10.37,2013-01-13 14:29:00,
2013-01-13 16:31:00,58.8,38.1,29.94,ESE,112,6.9,6.9,46,0.00,CLR,,0.00,WeatherDisplay:10.37,2013-01-13 14:31:00,
2013-01-13 16:32:00,59.2,38.4,29.94,ENE,68,6.9,6.9,46,0.00,CLR,,0.00,WeatherDisplay:10.37,2013-01-13 14:32:00,
2013-01-13 16:34:00,59.2,38.4,29.94,ENE,68,5.8,5.8,46,0.00,CLR,,0.00,WeatherDisplay:10.37,2013-01-13 14:34:00,
2013-01-13 16:36:00,59.2,38.4,29.94,NNE,22,4.6,4.6,46,0.00,CLR,,0.00,WeatherDisplay:10.37,2013-01-13 14:36:00,
2013-01-13 16:38:00,59.2,38.4,29.94,NNE,22,4.6,4.6,46,0.00,CLR,,0.00,WeatherDisplay:10.37,2013-01-13 14:38:00,
2013-01-13 16:39:00,59.0,38.2,29.94,NE,45,4.6,4.6,46,0.00,CLR,,0.00,WeatherDisplay:10.37,2013-01-13 14:39:00,
2013-01-13 16:41:00,58.8,38.1,29.94,ENE,68,5.9,5.9,46,0.00,CLR,,0.00,WeatherDisplay:10.37,2013-01-13 14:41:00,
2013-01-13 16:43:00,58.6,37.9,29.94,ENE,68,4.6,4.6,46,0.00,CLR,,0.00,WeatherDisplay:10.37,2013-01-13 14:43:00,
2013-01-13 16:44:00,58.6,38.5,29.94,ESE,112,5.4,5.4,47,0.00,CLR,,0.00,WeatherDisplay:10.37,2013-01-13 14:44:00,
2013-01-13 16:46:00,58.1,38.0,29.94,ENE,68,7.1,7.1,47,0.00,CLR,,0.00,WeatherDisplay:10.37,2013-01-13 14:46:00,
2013-01-13 16:48:00,57.7,37.6,29.94,ENE,68,8.1,8.1,47,0.00,CLR,,0.00,WeatherDisplay:10.37,2013-01-13 14:48:00,
2013-01-13 16:49:00,57.2,37.7,29.94,ENE,68,8.1,8.1,48,0.00,CLR,,0.00,WeatherDisplay:10.37,2013-01-13 14:49:00,
2013-01-13 16:51:00,56.8,37.3,29.94,ENE,68,5.4,5.4,48,0.00,CLR,,0.00,WeatherDisplay:10.37,2013-01-13 14:51:00,
2013-01-13 16:53:00,56.7,37.7,29.94,ENE,68,4.6,4.6,49,0.00,CLR,,0.00,WeatherDisplay:10.37,2013-01-13 14:53:00,
2013-01-13 16:54:00,56.5,37.5,29.94,ENE,68,5.8,5.8,49,0.00,CLR,,0.00,WeatherDisplay:10.37,2013-01-13 14:54:00,
2013-01-13 16:56:00,56.3,37.9,29.94,East,90,6.4,6.4,50,0.00,CLR,,0.00,WeatherDisplay:10.37,2013-01-13 14:56:00,
2013-01-13 16:58:00,56.1,37.7,29.94,ENE,68,5.8,5.8,50,0.00,CLR,,0.00,WeatherDisplay:10.37,2013-01-13 14:58:00,
2013-01-13 16:59:00,55.9,38.1,29.94,ENE,68,5.9,5.9,51,0.00,CLR,,0.00,WeatherDisplay:10.37,2013-01-13 14:59:00,
2013-01-13 17:01:00,55.8,37.9,29.94,ENE,68,5.8,5.8,51,0.00,CLR,,0.00,WeatherDisplay:10.37,2013-01-13 15:01:00,
2013-01-13 17:03:00,55.6,38.7,29.94,ENE,68,8.1,8.1,53,0.00,CLR,,0.00,WeatherDisplay:10.37,2013-01-13 15:03:00,
2013-01-13 17:05:00,55.4,38.5,29.94,ENE,69,5.0,8.0,53,0.00,CLR,,0.00,WeatherDisplay:10.37,2013-01-13 15:05:00,
2013-01-13 17:06:00,55.4,39.0,29.94,ENE,68,4.6,4.6,54,0.00,CLR,,0.00,WeatherDisplay:10.37,2013-01-13 15:06:00,
2013-01-13 17:07:00,55.2,38.9,29.94,NE,45,3.5,3.5,54,0.00,CLR,,0.00,WeatherDisplay:10.37,2013-01-13 15:07:00,
2013-01-13 17:08:00,55.0,38.7,29.94,NE,45,3.5,3.6,54,0.00,CLR,,0.00,WeatherDisplay:10.37,2013-01-13 15:08:00,
2013-01-13 17:10:00,55.0,39.2,29.94,ESE,112,8.1,8.1,55,0.00,CLR,,0.00,WeatherDisplay:10.37,2013-01-13 15:10:00,
2013-01-13 17:11:00,54.9,39.5,29.94,ENE,68,9.2,9.2,56,0.00,CLR,,0.00,WeatherDisplay:10.37,2013-01-13 15:11:00,
2013-01-13 17:12:00,54.9,39.5,29.94,ENE,68,5.8,5.8,56,0.00,CLR,,0.00,WeatherDisplay:10.37,2013-01-13 15:12:00,
2013-01-13 17:14:00,54.7,39.3,29.94,ENE,68,4.7,4.7,56,0.00,CLR,,0.00,WeatherDisplay:10.37,2013-01-13 15:14:00,
2013-01-13 17:15:00,54.5,39.1,29.94,ENE,68,4.6,4.6,56,0.00,CLR,,0.00,WeatherDisplay:10.37,2013-01-13 15:15:00,
2013-01-13 17:16:00,54.5,39.1,29.94,ENE,68,6.4,6.4,56,0.00,CLR,,0.00,WeatherDisplay:10.37,2013-01-13 15:16:00,
2013-01-13 17:17:00,54.5,39.1,29.94,ENE,68,6.9,6.9,56,0.00,CLR,,0.00,WeatherDisplay:10.37,2013-01-13 15:17:00,
2013-01-13 17:19:00,54.3,38.9,29.94,ESE,112,5.8,5.8,56,0.00,CLR,,0.00,WeatherDisplay:10.37,2013-01-13 15:19:00,
2013-01-13 17:20:00,54.3,38.9,29.94,East,90,4.7,4.7,56,0.00,CLR,,0.00,WeatherDisplay:10.37,2013-01-13 15:20:00,
2013-01-13 17:21:00,54.1,39.2,29.94,East,90,6.0,6.0,57,0.00,CLR,,0.00,WeatherDisplay:10.37,2013-01-13 15:21:00,
2013-01-13 17:22:00,54.1,39.2,29.94,ENE,68,5.8,5.8,57,0.00,CLR,,0.00,WeatherDisplay:10.37,2013-01-13 15:22:00,
2013-01-13 17:24:00,54.0,39.5,29.94,ENE,68,5.8,5.8,58,0.00,CLR,,0.00,WeatherDisplay:10.37,2013-01-13 15:24:00,
2013-01-13 17:25:00,54.0,39.5,29.94,NE,45,6.9,6.9,58,0.00,CLR,,0.00,WeatherDisplay:10.37,2013-01-13 15:25:00,
2013-01-13 17:26:00,53.8,39.3,29.94,East,90,8.1,8.1,58,0.00,CLR,,0.00,WeatherDisplay:10.37,2013-01-13 15:26:00,
2013-01-13 17:27:00,53.8,39.3,29.94,NE,45,5.8,5.8,58,0.00,CLR,,0.00,WeatherDisplay:10.37,2013-01-13 15:27:00,
2013-01-13 17:29:00,53.8,39.8,29.94,East,90,7.4,7.4,59,0.00,CLR,,0.00,WeatherDisplay:10.37,2013-01-13 15:29:00,
2013-01-13 17:30:00,53.6,39.6,29.94,ENE,68,7.1,7.1,59,0.00,CLR,,0.00,WeatherDisplay:10.37,2013-01-13 15:30:00,
2013-01-13 17:31:00,53.6,39.6,29.94,ENE,68,6.9,6.9,59,0.00,CLR,,0.00,WeatherDisplay:10.37,2013-01-13 15:31:00,
2013-01-13 17:32:00,53.6,39.6,29.97,NE,45,5.9,5.9,59,0.00,CLR,,0.00,WeatherDisplay:10.37,2013-01-13 15:32:00,
2013-01-13 17:34:00,53.4,39.9,29.97,ENE,68,6.9,6.9,60,0.00,CLR,,0.00,WeatherDisplay:10.37,2013-01-13 15:34:00,
2013-01-13 17:35:00,53.4,39.9,29.97,NE,45,6.9,6.9,60,0.00,CLR,,0.00,WeatherDisplay:10.37,2013-01-13 15:35:00,
2013-01-13 17:36:00,53.4,40.3,29.97,NE,45,8.1,8.1,61,0.00,CLR,,0.00,WeatherDisplay:10.37,2013-01-13 15:36:00,
2013-01-13 17:37:00,53.2,40.1,29.97,ENE,68,8.1,8.1,61,0.00,CLR,,0.00,WeatherDisplay:10.37,2013-01-13 15:37:00,
2013-01-13 17:39:00,53.2,40.1,29.97,East,90,5.8,5.8,61,0.00,CLR,,0.00,WeatherDisplay:10.37,2013-01-13 15:39:00,
2013-01-13 17:40:00,53.2,40.1,29.97,NE,45,8.1,8.1,61,0.00,CLR,,0.00,WeatherDisplay:10.37,2013-01-13 15:40:00,
2013-01-13 17:41:00,53.2,40.1,29.97,ENE,68,6.9,6.9,61,0.00,CLR,,0.00,WeatherDisplay:10.37,2013-01-13 15:41:00,
2013-01-13 17:43:00,53.2,40.5,29.97,NE,45,8.1,8.1,62,0.00,CLR,,0.00,WeatherDisplay:10.37,2013-01-13 15:43:00,
2013-01-13 17:44:00,53.1,40.4,29.97,NNE,22,8.1,8.1,62,0.00,CLR,,0.00,WeatherDisplay:10.37,2013-01-13 15:44:00,
2013-01-13 17:45:00,53.1,40.4,29.97,ENE,68,6.9,6.9,62,0.00,CLR,,0.00,WeatherDisplay:10.37,2013-01-13 15:45:00,
2013-01-13 17:47:00,53.1,40.8,29.97,NE,45,6.9,6.9,63,0.00,CLR,,0.00,WeatherDisplay:10.37,2013-01-13 15:47:00,
2013-01-13 17:48:00,53.1,40.8,29.97,ENE,68,7.4,7.4,63,0.00,CLR,,0.00,WeatherDisplay:10.37,2013-01-13 15:48:00,
2013-01-13 17:49:00,53.1,40.8,29.97,ENE,68,8.1,8.1,63,0.00,CLR,,0.00,WeatherDisplay:10.37,2013-01-13 15:49:00,
2013-01-13 17:52:00,52.9,41.0,29.97,ENE,68,9.2,9.2,64,0.00,CLR,,0.00,WeatherDisplay:10.37,2013-01-13 15:52:00,
2013-01-13 17:53:00,52.9,41.0,29.97,NE,45,9.2,9.2,64,0.00,CLR,,0.00,WeatherDisplay:10.37,2013-01-13 15:53:00,
2013-01-13 17:54:00,52.9,41.0,29.97,NE,45,9.2,9.2,64,0.00,CLR,,0.00,WeatherDisplay:10.37,2013-01-13 15:54:00,
2013-01-13 17:58:00,52.9,41.0,29.97,NNE,22,9.2,9.2,64,0.00,CLR,,0.00,WeatherDisplay:10.37,2013-01-13 15:58:00,
2013-01-13 18:00:00,52.9,41.0,29.97,NE,45,5.8,5.8,64,0.00,CLR,,0.00,WeatherDisplay:10.37,2013-01-13 16:00:00,
2013-01-13 18:03:00,52.7,40.9,29.97,NNE,22,6.9,6.9,64,0.00,CLR,,0.00,WeatherDisplay:10.37,2013-01-13 16:03:00,
2013-01-13 18:05:00,52.7,40.9,29.97,NE,45,6.2,6.2,64,0.00,CLR,,0.00,WeatherDisplay:10.37,2013-01-13 16:05:00,
2013-01-13 18:08:00,52.7,40.9,29.97,NNE,22,8.1,8.1,64,0.00,CLR,,0.00,WeatherDisplay:10.37,2013-01-13 16:08:00,
2013-01-13 18:10:00,52.5,40.7,29.97,NE,45,5.8,5.8,64,0.00,CLR,,0.00,WeatherDisplay:10.37,2013-01-13 16:10:00,
2013-01-13 18:13:00,52.5,40.7,29.97,NNE,22,5.8,5.8,64,0.00,CLR,,0.00,WeatherDisplay:10.37,2013-01-13 16:13:00,
2013-01-13 18:14:00,52.5,40.7,29.97,NNW,338,5.8,5.8,64,0.00,CLR,,0.00,WeatherDisplay:10.37,2013-01-13 16:14:00,
2013-01-13 18:15:00,52.5,40.7,29.97,NE,45,5.8,5.8,64,0.00,CLR,,0.00,WeatherDisplay:10.37,2013-01-13 16:15:00,
2013-01-13 18:18:00,52.5,40.7,29.97,NNE,22,5.8,5.8,64,0.00,CLR,,0.00,WeatherDisplay:10.37,2013-01-13 16:18:00,
2013-01-13 18:19:00,52.3,40.5,29.97,NE,45,5.8,5.8,64,0.00,CLR,,0.00,WeatherDisplay:10.37,2013-01-13 16:19:00,
2013-01-13 18:20:00,52.3,40.5,29.97,NE,45,5.8,5.8,64,0.00,CLR,,0.00,WeatherDisplay:10.37,2013-01-13 16:20:00,
2013-01-13 18:23:00,52.3,40.9,29.97,ENE,68,5.8,5.8,65,0.00,CLR,,0.00,WeatherDisplay:10.37,2013-01-13 16:23:00,
2013-01-13 18:24:00,52.3,40.9,29.97,NE,45,5.8,5.8,65,0.00,CLR,,0.00,WeatherDisplay:10.37,2013-01-13 16:24:00,
2013-01-13 18:25:00,52.3,40.9,29.97,ENE,68,5.8,5.8,65,0.00,CLR,,0.00,WeatherDisplay:10.37,2013-01-13 16:25:00,
2013-01-13 18:29:00,52.3,40.9,29.97,NNE,22,7.1,7.1,65,0.00,CLR,,0.00,WeatherDisplay:10.37,2013-01-13 16:29:00,
2013-01-13 18:31:00,52.5,41.1,29.97,ENE,68,5.8,5.8,65,0.00,CLR,,0.00,WeatherDisplay:10.37,2013-01-13 16:31:00,
2013-01-13 18:34:00,52.5,41.5,29.94,NE,45,9.2,9.2,66,0.00,CLR,,0.00,WeatherDisplay:10.37,2013-01-13 16:34:00,
2013-01-13 18:36:00,52.5,41.5,29.94,NNE,22,6.9,6.9,66,0.00,CLR,,0.00,WeatherDisplay:10.37,2013-01-13 16:36:00,
2013-01-13 18:39:00,52.5,41.5,29.94,ENE,68,6.9,6.9,66,0.00,CLR,,0.00,WeatherDisplay:10.37,2013-01-13 16:39:00,
2013-01-13 18:40:00,52.5,41.5,29.94,ENE,68,5.8,5.8,66,0.00,CLR,,0.00,WeatherDisplay:10.37,2013-01-13 16:40:00,
2013-01-13 18:41:00,52.5,41.5,29.94,NE,45,4.6,4.6,66,0.00,CLR,,0.00,WeatherDisplay:10.37,2013-01-13 16:41:00,
2013-01-13 18:44:00,52.5,41.5,29.94,ENE,68,7.4,7.4,66,0.00,CLR,,0.00,WeatherDisplay:10.37,2013-01-13 16:44:00,
2013-01-13 18:45:00,52.5,41.5,29.94,ENE,68,8.1,8.1,66,0.00,CLR,,0.00,WeatherDisplay:10.37,2013-01-13 16:45:00,
2013-01-13 18:47:00,52.5,41.5,29.97,East,90,5.8,5.8,66,0.00,CLR,,0.00,WeatherDisplay:10.37,2013-01-13 16:47:00,
2013-01-13 18:49:00,52.5,41.5,29.97,NE,45,5.4,5.4,66,0.00,CLR,,0.00,WeatherDisplay:10.37,2013-01-13 16:49:00,
2013-01-13 18:50:00,52.5,41.5,29.97,NNE,22,5.8,5.8,66,0.00,CLR,,0.00,WeatherDisplay:10.37,2013-01-13 16:50:00,
2013-01-13 18:52:00,52.5,41.5,29.97,NE,45,3.5,3.5,66,0.00,CLR,,0.00,WeatherDisplay:10.37,2013-01-13 16:52:00,
2013-01-13 18:54:00,52.3,40.9,29.97,NE,45,5.8,5.8,65,0.00,CLR,,0.00,WeatherDisplay:10.37,2013-01-13 16:54:00,
2013-01-13 18:55:00,52.3,40.9,29.97,NE,45,3.5,3.5,65,0.00,CLR,,0.00,WeatherDisplay:10.37,2013-01-13 16:55:00,
2013-01-13 18:56:00,52.3,40.9,29.97,ENE,68,3.6,3.6,65,0.00,CLR,,0.00,WeatherDisplay:10.37,2013-01-13 16:56:00,
2013-01-13 18:57:00,52.3,40.9,29.97,ENE,68,3.5,3.5,65,0.00,CLR,,0.00,WeatherDisplay:10.37,2013-01-13 16:57:00,
2013-01-13 18:59:00,52.3,40.9,29.97,ENE,68,4.0,4.0,65,0.00,CLR,,0.00,WeatherDisplay:10.37,2013-01-13 16:59:00,
2013-01-13 19:00:00,52.3,40.9,29.97,ENE,68,5.8,5.8,65,0.00,CLR,,0.00,WeatherDisplay:10.37,2013-01-13 17:00:00,
2013-01-13 19:01:00,52.3,41.3,29.97,ENE,68,5.8,5.8,66,0.00,CLR,,0.00,WeatherDisplay:10.37,2013-01-13 17:01:00,
2013-01-13 19:02:00,52.3,41.3,30.00,NE,45,5.8,5.8,66,0.00,CLR,,0.00,WeatherDisplay:10.37,2013-01-13 17:02:00,
2013-01-13 19:04:00,52.3,40.9,30.00,ENE,68,3.8,3.8,65,0.00,CLR,,0.00,WeatherDisplay:10.37,2013-01-13 17:04:00,
2013-01-13 19:05:00,52.3,40.9,30.00,ENE,68,4.9,4.9,65,0.00,CLR,,0.00,WeatherDisplay:10.37,2013-01-13 17:05:00,
2013-01-13 19:06:00,52.3,40.9,30.00,East,90,4.6,4.6,65,0.00,CLR,,0.00,WeatherDisplay:10.37,2013-01-13 17:06:00,
2013-01-13 19:07:00,52.3,40.9,30.00,East,90,4.6,4.6,65,0.00,CLR,,0.00,WeatherDisplay:10.37,2013-01-13 17:07:00,
2013-01-13 19:09:00,52.2,40.7,30.00,ENE,68,3.8,0.0,65,0.00,CLR,,0.00,WeatherDisplay:10.37,2013-01-13 17:09:00,
2013-01-13 19:10:00,52.2,40.7,30.00,NNE,22,5.8,5.8,65,0.00,CLR,,0.00,WeatherDisplay:10.37,2013-01-13 17:10:00,
2013-01-13 19:11:00,52.2,40.7,30.00,ENE,68,4.6,4.6,65,0.00,CLR,,0.00,WeatherDisplay:10.37,2013-01-13 17:11:00,
2013-01-13 19:12:00,52.2,40.7,30.00,ENE,68,3.5,3.5,65,0.00,CLR,,0.00,WeatherDisplay:10.37,2013-01-13 17:12:00,
2013-01-13 19:14:00,52.2,40.7,30.00,NE,45,5.8,5.8,65,0.00,CLR,,0.00,WeatherDisplay:10.37,2013-01-13 17:14:00,
2013-01-13 19:16:00,52.2,41.1,30.00,NNE,22,6.9,6.9,66,0.00,CLR,,0.00,WeatherDisplay:10.37,2013-01-13 17:16:00,
2013-01-13 19:17:00,52.2,41.1,29.97,NE,45,4.6,4.6,66,0.00,CLR,,0.00,WeatherDisplay:10.37,2013-01-13 17:17:00,
2013-01-13 19:20:00,52.2,40.7,29.97,NE,45,6.9,6.9,65,0.00,CLR,,0.00,WeatherDisplay:10.37,2013-01-13 17:20:00,
2013-01-13 19:21:00,52.2,40.7,29.97,NNE,22,3.5,3.5,65,0.00,CLR,,0.00,WeatherDisplay:10.37,2013-01-13 17:21:00,
2013-01-13 19:22:00,52.2,40.7,29.97,NNE,22,3.5,3.5,65,0.00,CLR,,0.00,WeatherDisplay:10.37,2013-01-13 17:22:00,
2013-01-13 19:25:00,52.0,40.6,29.97,NE,45,5.8,5.8,65,0.00,CLR,,0.00,WeatherDisplay:10.37,2013-01-13 17:25:00,
2013-01-13 19:27:00,52.0,40.6,29.97,NNE,22,5.8,5.8,65,0.00,CLR,,0.00,WeatherDisplay:10.37,2013-01-13 17:27:00,
2013-01-13 19:28:00,52.0,40.6,29.97,North,0,5.8,5.8,65,0.00,CLR,,0.00,WeatherDisplay:10.37,2013-01-13 17:28:00,
2013-01-13 19:30:00,52.0,40.6,29.97,NE,45,4.6,4.6,65,0.00,CLR,,0.00,WeatherDisplay:10.37,2013-01-13 17:30:00,
2013-01-13 19:32:00,52.0,40.6,29.97,ENE,68,5.8,5.8,65,0.00,CLR,,0.00,WeatherDisplay:10.37,2013-01-13 17:32:00,
2013-01-13 19:33:00,52.0,40.6,29.97,ENE,68,4.6,4.6,65,0.00,CLR,,0.00,WeatherDisplay:10.37,2013-01-13 17:33:00,
2013-01-13 19:35:00,51.8,40.4,29.97,ENE,68,5.6,5.6,65,0.00,CLR,,0.00,WeatherDisplay:10.37,2013-01-13 17:35:00,
2013-01-13 19:37:00,51.8,40.8,29.97,ENE,68,8.1,8.1,66,0.00,CLR,,0.00,WeatherDisplay:10.37,2013-01-13 17:37:00,
2013-01-13 19:38:00,51.8,40.8,29.97,NNE,22,5.8,5.8,66,0.00,CLR,,0.00,WeatherDisplay:10.37,2013-01-13 17:38:00,
2013-01-13 19:40:00,51.8,40.8,29.97,NNE,22,5.8,5.8,66,0.00,CLR,,0.00,WeatherDisplay:10.37,2013-01-13 17:40:00,
2013-01-13 19:42:00,51.8,40.8,29.97,NNE,22,6.9,6.9,66,0.00,CLR,,0.00,WeatherDisplay:10.37,2013-01-13 17:42:00,
2013-01-13 19:44:00,51.8,40.4,29.97,East,90,6.9,6.9,65,0.00,CLR,,0.00,WeatherDisplay:10.37,2013-01-13 17:44:00,
2013-01-13 19:45:00,51.8,40.4,29.97,ESE,112,4.6,4.6,65,0.00,CLR,,0.00,WeatherDisplay:10.37,2013-01-13 17:45:00,
2013-01-13 19:47:00,51.6,40.2,29.97,East,90,3.5,3.5,65,0.00,CLR,,0.00,WeatherDisplay:10.37,2013-01-13 17:47:00,
2013-01-13 19:48:00,51.6,40.2,29.97,ENE,68,2.6,2.6,65,0.00,CLR,,0.00,WeatherDisplay:10.37,2013-01-13 17:48:00,
2013-01-13 19:49:00,51.6,40.2,29.97,NE,45,3.5,3.5,65,0.00,CLR,,0.00,WeatherDisplay:10.37,2013-01-13 17:49:00,
2013-01-13 19:50:00,51.6,40.2,29.97,NNE,22,3.5,3.5,65,0.00,CLR,,0.00,WeatherDisplay:10.37,2013-01-13 17:50:00,
2013-01-13 19:52:00,51.6,40.2,29.97,ENE,68,4.7,4.7,65,0.00,CLR,,0.00,WeatherDisplay:10.37,2013-01-13 17:52:00,
2013-01-13 19:53:00,51.6,40.6,29.97,NE,45,4.6,4.6,66,0.00,CLR,,0.00,WeatherDisplay:10.37,2013-01-13 17:53:00,
2013-01-13 19:55:00,51.4,40.1,29.97,NNE,22,3.5,3.5,65,0.00,CLR,,0.00,WeatherDisplay:10.37,2013-01-13 17:55:00,
2013-01-13 19:58:00,51.3,39.9,29.97,NNE,22,0.0,0.0,65,0.00,CLR,,0.00,WeatherDisplay:10.37,2013-01-13 17:58:00,
2013-01-13 20:01:00,51.1,39.3,29.97,NNE,22,0.0,0.0,64,0.00,CLR,,0.00,WeatherDisplay:10.37,2013-01-13 18:01:00,
2013-01-13 20:03:00,50.9,39.1,29.97,NNE,22,0.0,0.0,64,0.00,CLR,,0.00,WeatherDisplay:10.37,2013-01-13 18:03:00,
2013-01-13 20:06:00,50.7,39.0,29.97,NNE,22,2.9,0.0,64,0.00,CLR,,0.00,WeatherDisplay:10.37,2013-01-13 18:06:00,
2013-01-13 20:08:00,50.9,39.5,29.97,North,0,2.6,3.1,65,0.00,CLR,,0.00,WeatherDisplay:10.37,2013-01-13 18:08:00,
2013-01-13 20:11:00,50.9,39.5,29.97,NW,315,2.3,2.3,65,0.00,CLR,,0.00,WeatherDisplay:10.37,2013-01-13 18:11:00,
2013-01-13 20:13:00,50.9,39.5,29.97,NE,45,2.3,2.3,65,0.00,CLR,,0.00,WeatherDisplay:10.37,2013-01-13 18:13:00,
2013-01-13 20:16:00,50.7,39.4,29.97,NNE,22,2.3,0.0,65,0.00,CLR,,0.00,WeatherDisplay:10.37,2013-01-13 18:16:00,
2013-01-13 20:18:00,50.9,39.9,29.94,SSE,158,2.3,2.3,66,0.00,CLR,,0.00,WeatherDisplay:10.37,2013-01-13 18:18:00,
2013-01-13 20:19:00,50.9,39.9,29.94,South,180,2.3,2.3,66,0.00,CLR,,0.00,WeatherDisplay:10.37,2013-01-13 18:19:00,
2013-01-13 20:21:00,50.9,39.9,29.94,SSW,202,2.3,2.3,66,0.00,CLR,,0.00,WeatherDisplay:10.37,2013-01-13 18:21:00,
2013-01-13 20:24:00,50.9,39.9,29.94,SSE,158,2.2,0.0,66,0.00,CLR,,0.00,WeatherDisplay:10.37,2013-01-13 18:24:00,
2013-01-13 20:26:00,50.5,39.2,29.94,West,270,2.3,2.4,65,0.00,CLR,,0.00,WeatherDisplay:10.37,2013-01-13 18:26:00,
2013-01-13 20:29:00,50.5,40.0,29.94,ENE,68,4.6,4.6,67,0.00,CLR,,0.00,WeatherDisplay:10.37,2013-01-13 18:29:00,
2013-01-13 20:31:00,50.7,40.5,29.94,NE,45,3.5,3.5,68,0.00,CLR,,0.00,WeatherDisplay:10.37,2013-01-13 18:31:00,
2013-01-13 20:34:00,50.9,40.3,29.94,ESE,112,2.3,0.0,67,0.00,CLR,,0.00,WeatherDisplay:10.37,2013-01-13 18:34:00,
2013-01-13 20:36:00,50.9,40.3,29.94,NE,45,2.3,2.3,67,0.00,CLR,,0.00,WeatherDisplay:10.37,2013-01-13 18:36:00,
2013-01-13 20:39:00,50.7,40.2,29.94,NE,45,3.5,3.5,67,0.00,CLR,,0.00,WeatherDisplay:10.37,2013-01-13 18:39:00,
2013-01-13 20:41:00,50.7,40.2,29.94,NNE,22,4.6,4.6,67,0.00,CLR,,0.00,WeatherDisplay:10.37,2013-01-13 18:41:00,
2013-01-13 20:42:00,50.7,40.2,29.94,NNE,22,4.6,4.6,67,0.00,CLR,,0.00,WeatherDisplay:10.37,2013-01-13 18:42:00,
2013-01-13 20:44:00,50.7,40.2,29.94,ENE,68,3.8,3.8,67,0.00,CLR,,0.00,WeatherDisplay:10.37,2013-01-13 18:44:00,
2013-01-13 20:45:00,50.7,40.2,29.94,ENE,68,3.5,3.5,67,0.00,CLR,,0.00,WeatherDisplay:10.37,2013-01-13 18:45:00,
2013-01-13 20:46:00,50.7,40.2,29.94,ENE,68,4.6,4.6,67,0.00,CLR,,0.00,WeatherDisplay:10.37,2013-01-13 18:46:00,
2013-01-13 20:47:00,50.7,40.2,29.97,NE,45,5.8,5.8,67,0.00,CLR,,0.00,WeatherDisplay:10.37,2013-01-13 18:47:00,
2013-01-13 20:50:00,50.9,41.1,29.97,NE,48,5.0,7.0,69,0.00,CLR,,0.00,WeatherDisplay:10.37,2013-01-13 18:50:00,
2013-01-13 20:51:00,51.1,41.3,29.97,ENE,68,5.8,5.8,69,0.00,CLR,,0.00,WeatherDisplay:10.37,2013-01-13 18:51:00,
2013-01-13 20:52:00,51.1,41.3,29.97,NE,45,5.6,5.6,69,0.00,CLR,,0.00,WeatherDisplay:10.37,2013-01-13 18:52:00,
2013-01-13 20:55:00,51.1,41.3,29.97,NE,45,5.8,5.8,69,0.00,CLR,,0.00,WeatherDisplay:10.37,2013-01-13 18:55:00,
2013-01-13 20:56:00,51.1,40.9,29.97,NNE,22,4.6,4.6,68,0.00,CLR,,0.00,WeatherDisplay:10.37,2013-01-13 18:56:00,
2013-01-13 20:58:00,51.1,40.9,29.97,NE,45,5.8,5.8,68,0.00,CLR,,0.00,WeatherDisplay:10.37,2013-01-13 18:58:00,
2013-01-13 21:00:00,51.1,40.9,29.97,ENE,68,5.8,5.8,68,0.00,CLR,,0.00,WeatherDisplay:10.37,2013-01-13 19:00:00,
2013-01-13 21:02:00,51.1,40.9,29.97,NNE,22,4.6,4.6,68,0.00,CLR,,0.00,WeatherDisplay:10.37,2013-01-13 19:02:00,
2013-01-13 21:03:00,51.1,40.9,29.97,NE,45,6.0,6.0,68,0.00,CLR,,0.00,WeatherDisplay:10.37,2013-01-13 19:03:00,
2013-01-13 21:05:00,51.1,40.9,29.97,NE,45,4.6,4.6,68,0.00,CLR,,0.00,WeatherDisplay:10.37,2013-01-13 19:05:00,
2013-01-13 21:07:00,51.1,40.9,29.97,NE,45,5.8,5.8,68,0.00,CLR,,0.00,WeatherDisplay:10.37,2013-01-13 19:07:00,
2013-01-13 21:08:00,51.1,40.9,29.97,ENE,68,5.8,5.8,68,0.00,CLR,,0.00,WeatherDisplay:10.37,2013-01-13 19:08:00,
2013-01-13 21:10:00,51.1,40.9,29.97,NE,45,3.5,3.8,68,0.00,CLR,,0.00,WeatherDisplay:10.37,2013-01-13 19:10:00,
2013-01-13 21:12:00,51.1,40.9,29.97,ENE,68,5.8,5.8,68,0.00,CLR,,0.00,WeatherDisplay:10.37,2013-01-13 19:12:00,
2013-01-13 21:13:00,51.3,41.1,29.97,ENE,68,6.0,6.0,68,0.00,CLR,,0.00,WeatherDisplay:10.37,2013-01-13 19:13:00,
2013-01-13 21:15:00,51.3,41.1,29.97,NE,45,8.1,8.1,68,0.00,CLR,,0.00,WeatherDisplay:10.37,2013-01-13 19:15:00,
2013-01-13 21:17:00,51.4,41.2,29.97,NNE,22,5.9,5.9,68,0.00,CLR,,0.00,WeatherDisplay:10.37,2013-01-13 19:17:00,
2013-01-13 21:18:00,51.4,40.8,29.97,NNE,22,5.8,5.8,67,0.00,CLR,,0.00,WeatherDisplay:10.37,2013-01-13 19:18:00,
2013-01-13 21:20:00,51.4,40.8,29.97,NE,45,8.1,8.1,67,0.00,CLR,,0.00,WeatherDisplay:10.37,2013-01-13 19:20:00,
2013-01-13 21:22:00,51.6,41.0,29.97,NE,45,5.8,5.8,67,0.00,CLR,,0.00,WeatherDisplay:10.37,2013-01-13 19:22:00,
2013-01-13 21:23:00,51.6,41.0,29.97,NE,45,6.0,6.0,67,0.00,CLR,,0.00,WeatherDisplay:10.37,2013-01-13 19:23:00,
2013-01-13 21:25:00,51.6,40.6,29.97,ENE,68,5.8,5.8,66,0.00,CLR,,0.00,WeatherDisplay:10.37,2013-01-13 19:25:00,
2013-01-13 21:26:00,51.6,40.6,29.97,NNE,22,5.8,5.8,66,0.00,CLR,,0.00,WeatherDisplay:10.37,2013-01-13 19:26:00,
2013-01-13 21:27:00,51.6,40.6,29.97,NNE,22,5.8,5.8,66,0.00,CLR,,0.00,WeatherDisplay:10.37,2013-01-13 19:27:00,
2013-01-13 21:29:00,51.8,40.4,29.97,NE,45,5.8,5.8,65,0.00,CLR,,0.00,WeatherDisplay:10.37,2013-01-13 19:29:00,
2013-01-13 21:30:00,51.8,40.4,29.97,NNE,22,6.9,6.9,65,0.00,CLR,,0.00,WeatherDisplay:10.37,2013-01-13 19:30:00,
2013-01-13 21:31:00,51.8,40.4,29.97,NE,45,5.8,5.8,65,0.00,CLR,,0.00,WeatherDisplay:10.37,2013-01-13 19:31:00,
2013-01-13 21:32:00,51.8,40.4,29.97,NNE,22,5.8,5.8,65,0.00,CLR,,0.00,WeatherDisplay:10.37,2013-01-13 19:32:00,
2013-01-13 21:34:00,51.8,40.4,29.97,ENE,68,4.6,4.6,65,0.00,CLR,,0.00,WeatherDisplay:10.37,2013-01-13 19:34:00,
2013-01-13 21:35:00,52.0,40.6,29.97,ENE,68,6.9,6.9,65,0.00,CLR,,0.00,WeatherDisplay:10.37,2013-01-13 19:35:00,
2013-01-13 21:36:00,52.0,40.6,29.97,NE,45,5.8,5.8,65,0.00,CLR,,0.00,WeatherDisplay:10.37,2013-01-13 19:36:00,
2013-01-13 21:37:00,52.0,40.2,29.97,ENE,68,4.6,4.6,64,0.00,CLR,,0.00,WeatherDisplay:10.37,2013-01-13 19:37:00,
2013-01-13 21:39:00,52.0,40.2,29.97,ENE,68,5.9,5.9,64,0.00,CLR,,0.00,WeatherDisplay:10.37,2013-01-13 19:39:00,
2013-01-13 21:40:00,52.0,40.2,29.97,ENE,68,5.8,5.8,64,0.00,CLR,,0.00,WeatherDisplay:10.37,2013-01-13 19:40:00,
2013-01-13 21:41:00,52.0,40.2,29.97,ENE,68,4.0,4.0,64,0.00,CLR,,0.00,WeatherDisplay:10.37,2013-01-13 19:41:00,
2013-01-13 21:42:00,52.0,40.2,29.97,ENE,68,4.9,4.9,64,0.00,CLR,,0.00,WeatherDisplay:10.37,2013-01-13 19:42:00,
2013-01-13 21:44:00,52.2,40.3,29.97,ENE,68,4.6,4.6,64,0.00,CLR,,0.00,WeatherDisplay:10.37,2013-01-13 19:44:00,
2013-01-13 21:45:00,52.2,40.3,29.97,ENE,68,4.6,4.7,64,0.00,CLR,,0.00,WeatherDisplay:10.37,2013-01-13 19:45:00,
2013-01-13 21:46:00,52.2,40.3,29.97,NE,45,5.8,5.8,64,0.00,CLR,,0.00,WeatherDisplay:10.37,2013-01-13 19:46:00,
2013-01-13 21:47:00,52.2,40.3,29.97,NE,45,4.6,4.6,64,0.00,CLR,,0.00,WeatherDisplay:10.37,2013-01-13 19:47:00,
2013-01-13 21:49:00,52.2,40.3,29.97,NE,45,5.8,5.8,64,0.00,CLR,,0.00,WeatherDisplay:10.37,2013-01-13 19:49:00,
2013-01-13 21:51:00,52.3,40.5,29.97,NE,45,5.6,5.6,64,0.00,CLR,,0.00,WeatherDisplay:10.37,2013-01-13 19:51:00,
2013-01-13 21:52:00,52.3,40.5,29.97,NNE,22,5.9,5.9,64,0.00,CLR,,0.00,WeatherDisplay:10.37,2013-01-13 19:52:00,
2013-01-13 21:54:00,52.3,40.5,29.97,ENE,68,7.4,7.4,64,0.00,CLR,,0.00,WeatherDisplay:10.37,2013-01-13 19:54:00,
2013-01-13 21:56:00,52.3,40.5,29.97,NE,45,5.8,5.8,64,0.00,CLR,,0.00,WeatherDisplay:10.37,2013-01-13 19:56:00,
2013-01-13 21:57:00,52.5,40.7,29.97,ENE,68,4.6,5.4,64,0.00,CLR,,0.00,WeatherDisplay:10.37,2013-01-13 19:57:00,
2013-01-13 21:58:00,52.5,40.7,29.97,NE,45,5.8,5.8,64,0.00,CLR,,0.00,WeatherDisplay:10.37,2013-01-13 19:58:00,
2013-01-13 21:59:00,52.5,40.7,29.97,NNE,22,5.8,5.8,64,0.00,CLR,,0.00,WeatherDisplay:10.37,2013-01-13 19:59:00,
2013-01-13 22:01:00,52.5,40.7,29.97,NE,45,5.8,5.8,64,0.00,CLR,,0.00,WeatherDisplay:10.37,2013-01-13 20:01:00,
2013-01-13 22:02:00,52.5,40.7,29.97,NNE,22,5.8,5.8,64,0.00,CLR,,0.00,WeatherDisplay:10.37,2013-01-13 20:02:00,
2013-01-13 22:03:00,52.5,40.7,29.97,NE,45,5.8,5.8,64,0.00,CLR,,0.00,WeatherDisplay:10.37,2013-01-13 20:03:00,
2013-01-13 22:04:00,52.5,40.3,29.97,ENE,68,4.6,4.6,63,0.00,CLR,,0.00,WeatherDisplay:10.37,2013-01-13 20:04:00,
2013-01-13 22:06:00,52.7,40.5,29.97,ENE,68,4.6,4.6,63,0.00,CLR,,0.00,WeatherDisplay:10.37,2013-01-13 20:06:00,
2013-01-13 22:07:00,52.5,40.3,29.97,ENE,68,4.6,4.6,63,0.00,CLR,,0.00,WeatherDisplay:10.37,2013-01-13 20:07:00,
2013-01-13 22:08:00,52.5,40.3,29.97,ENE,68,3.5,3.5,63,0.00,CLR,,0.00,WeatherDisplay:10.37,2013-01-13 20:08:00,
2013-01-13 22:10:00,52.5,40.3,29.97,ENE,68,5.8,5.8,63,0.00,CLR,,0.00,WeatherDisplay:10.37,2013-01-13 20:10:00,
2013-01-13 22:12:00,52.7,40.5,29.97,SSE,158,4.6,4.6,63,0.00,CLR,,0.00,WeatherDisplay:10.37,2013-01-13 20:12:00,
2013-01-13 22:13:00,52.7,40.5,29.97,SSE,158,4.6,4.6,63,0.00,CLR,,0.00,WeatherDisplay:10.37,2013-01-13 20:13:00,
2013-01-13 22:15:00,52.7,40.5,29.97,SSE,158,4.6,4.6,63,0.00,CLR,,0.00,WeatherDisplay:10.37,2013-01-13 20:15:00,
2013-01-13 22:17:00,52.7,40.5,29.94,SSE,158,3.1,3.1,63,0.00,CLR,,0.00,WeatherDisplay:10.37,2013-01-13 20:17:00,
2013-01-13 22:18:00,52.7,40.5,29.94,SSE,158,3.5,3.5,63,0.00,CLR,,0.00,WeatherDisplay:10.37,2013-01-13 20:18:00,
2013-01-13 22:21:00,52.5,40.3,29.94,East,90,2.4,2.4,63,0.00,CLR,,0.00,WeatherDisplay:10.37,2013-01-13 20:21:00,
2013-01-13 22:22:00,52.5,40.3,29.94,NE,45,2.6,2.6,63,0.00,CLR,,0.00,WeatherDisplay:10.37,2013-01-13 20:22:00,
2013-01-13 22:23:00,52.5,40.3,29.94,NNE,22,3.6,3.6,63,0.00,CLR,,0.00,WeatherDisplay:10.37,2013-01-13 20:23:00,
2013-01-13 22:26:00,52.5,39.9,29.94,NE,45,2.4,2.4,62,0.00,CLR,,0.00,WeatherDisplay:10.37,2013-01-13 20:26:00,
2013-01-13 22:27:00,52.7,40.0,29.94,ENE,68,3.5,3.5,62,0.00,CLR,,0.00,WeatherDisplay:10.37,2013-01-13 20:27:00,
2013-01-13 22:28:00,52.7,40.0,29.94,ENE,68,3.6,3.6,62,0.00,CLR,,0.00,WeatherDisplay:10.37,2013-01-13 20:28:00,
2013-01-13 22:29:00,52.7,40.0,29.94,ENE,68,3.5,3.5,62,0.00,CLR,,0.00,WeatherDisplay:10.37,2013-01-13 20:29:00,
2013-01-13 22:31:00,52.7,40.0,29.94,ENE,68,3.5,3.5,62,0.00,CLR,,0.00,WeatherDisplay:10.37,2013-01-13 20:31:00,
2013-01-13 22:32:00,52.7,40.0,29.94,ENE,68,3.5,3.5,62,0.00,CLR,,0.00,WeatherDisplay:10.37,2013-01-13 20:32:00,
2013-01-13 22:33:00,52.7,40.0,29.94,ENE,68,3.5,3.5,62,0.00,CLR,,0.00,WeatherDisplay:10.37,2013-01-13 20:33:00,
2013-01-13 22:34:00,52.7,40.0,29.94,ENE,68,3.5,3.5,62,0.00,CLR,,0.00,WeatherDisplay:10.37,2013-01-13 20:34:00,
2013-01-13 22:36:00,52.7,40.0,29.94,ENE,68,2.6,2.6,62,0.00,CLR,,0.00,WeatherDisplay:10.37,2013-01-13 20:36:00,
2013-01-13 22:37:00,52.7,40.0,29.94,ENE,68,3.5,3.5,62,0.00,CLR,,0.00,WeatherDisplay:10.37,2013-01-13 20:37:00,
2013-01-13 22:38:00,52.7,40.0,29.94,ENE,68,3.5,3.5,62,0.00,CLR,,0.00,WeatherDisplay:10.37,2013-01-13 20:38:00,
2013-01-13 22:39:00,52.7,40.0,29.94,ENE,68,3.5,3.5,62,0.00,CLR,,0.00,WeatherDisplay:10.37,2013-01-13 20:39:00,
2013-01-13 22:41:00,52.7,40.0,29.94,ENE,68,3.5,3.5,62,0.00,CLR,,0.00,WeatherDisplay:10.37,2013-01-13 20:41:00,
2013-01-13 22:42:00,52.7,40.0,29.94,ENE,68,4.6,4.6,62,0.00,CLR,,0.00,WeatherDisplay:10.37,2013-01-13 20:42:00,
2013-01-13 22:43:00,52.7,40.0,29.94,NE,45,4.6,4.6,62,0.00,CLR,,0.00,WeatherDisplay:10.37,2013-01-13 20:43:00,
2013-01-13 22:45:00,52.7,40.0,29.94,ENE,68,3.5,3.5,62,0.00,CLR,,0.00,WeatherDisplay:10.37,2013-01-13 20:45:00,
2013-01-13 22:46:00,52.7,40.0,29.94,ENE,68,5.6,5.6,62,0.00,CLR,,0.00,WeatherDisplay:10.37,2013-01-13 20:46:00,
2013-01-13 22:48:00,52.7,39.6,29.97,ENE,68,5.8,5.8,61,0.00,CLR,,0.00,WeatherDisplay:10.37,2013-01-13 20:48:00,
2013-01-13 22:50:00,52.7,39.6,29.97,NE,45,4.6,4.6,61,0.00,CLR,,0.00,WeatherDisplay:10.37,2013-01-13 20:50:00,
2013-01-13 22:51:00,52.7,39.6,29.97,NE,45,4.9,4.9,61,0.00,CLR,,0.00,WeatherDisplay:10.37,2013-01-13 20:51:00,
2013-01-13 22:53:00,52.7,39.6,29.97,NE,45,5.8,5.8,61,0.00,CLR,,0.00,WeatherDisplay:10.37,2013-01-13 20:53:00,
2013-01-13 22:54:00,52.9,39.8,29.97,NNE,22,5.8,5.8,61,0.00,CLR,,0.00,WeatherDisplay:10.37,2013-01-13 20:54:00,
2013-01-13 22:55:00,52.9,39.8,29.97,ENE,68,4.6,4.6,61,0.00,CLR,,0.00,WeatherDisplay:10.37,2013-01-13 20:55:00,
2013-01-13 22:56:00,52.9,39.8,29.97,NE,45,5.8,5.8,61,0.00,CLR,,0.00,WeatherDisplay:10.37,2013-01-13 20:56:00,
2013-01-13 22:58:00,52.9,39.8,29.97,NE,45,4.6,4.6,61,0.00,CLR,,0.00,WeatherDisplay:10.37,2013-01-13 20:58:00,
2013-01-13 22:59:00,52.9,39.8,29.97,NNE,22,4.6,4.6,61,0.00,CLR,,0.00,WeatherDisplay:10.37,2013-01-13 20:59:00,
2013-01-13 23:00:00,52.9,39.8,29.97,ENE,68,5.8,5.8,61,0.00,CLR,,0.00,WeatherDisplay:10.37,2013-01-13 21:00:00,
2013-01-13 23:01:00,52.9,39.8,29.97,ENE,68,5.8,5.8,61,0.00,CLR,,0.00,WeatherDisplay:10.37,2013-01-13 21:01:00,
2013-01-13 23:03:00,52.9,39.8,29.97,NE,45,6.0,6.0,61,0.00,CLR,,0.00,WeatherDisplay:10.37,2013-01-13 21:03:00,
2013-01-13 23:04:00,52.9,39.8,29.97,ENE,68,5.8,5.8,61,0.00,CLR,,0.00,WeatherDisplay:10.37,2013-01-13 21:04:00,
2013-01-13 23:05:00,52.9,39.8,29.97,ENE,68,4.6,4.6,61,0.00,CLR,,0.00,WeatherDisplay:10.37,2013-01-13 21:05:00,
2013-01-13 23:07:00,52.7,39.6,29.97,ENE,68,3.5,3.5,61,0.00,CLR,,0.00,WeatherDisplay:10.37,2013-01-13 21:07:00,
2013-01-13 23:08:00,52.7,39.6,29.97,East,90,5.8,5.8,61,0.00,CLR,,0.00,WeatherDisplay:10.37,2013-01-13 21:08:00,
2013-01-13 23:09:00,52.7,39.6,29.97,ENE,68,3.8,3.8,61,0.00,CLR,,0.00,WeatherDisplay:10.37,2013-01-13 21:09:00,
2013-01-13 23:10:00,52.7,39.6,29.97,NE,45,5.9,5.9,61,0.00,CLR,,0.00,WeatherDisplay:10.37,2013-01-13 21:10:00,
2013-01-13 23:12:00,52.7,39.6,29.97,NNE,22,6.9,6.9,61,0.00,CLR,,0.00,WeatherDisplay:10.37,2013-01-13 21:12:00,
2013-01-13 23:13:00,52.9,39.8,29.97,NE,45,6.9,6.9,61,0.00,CLR,,0.00,WeatherDisplay:10.37,2013-01-13 21:13:00,
2013-01-13 23:14:00,52.9,39.4,29.97,NE,45,6.9,6.9,60,0.00,CLR,,0.00,WeatherDisplay:10.37,2013-01-13 21:14:00,
2013-01-13 23:15:00,52.9,39.4,29.97,NE,45,8.1,8.1,60,0.00,CLR,,0.00,WeatherDisplay:10.37,2013-01-13 21:15:00,
2013-01-13 23:17:00,52.9,39.4,29.97,NNE,22,8.1,8.1,60,0.00,CLR,,0.00,WeatherDisplay:10.37,2013-01-13 21:17:00,
2013-01-13 23:18:00,53.1,39.5,29.97,NNE,22,6.9,6.9,60,0.00,CLR,,0.00,WeatherDisplay:10.37,2013-01-13 21:18:00,
2013-01-13 23:19:00,53.1,39.5,29.97,NE,45,9.8,9.8,60,0.00,CLR,,0.00,WeatherDisplay:10.37,2013-01-13 21:19:00,
2013-01-13 23:20:00,52.9,39.4,29.97,NE,45,9.2,9.2,60,0.00,CLR,,0.00,WeatherDisplay:10.37,2013-01-13 21:20:00,
2013-01-13 23:22:00,52.9,39.4,29.97,North,0,5.4,5.4,60,0.00,CLR,,0.00,WeatherDisplay:10.37,2013-01-13 21:22:00,
2013-01-13 23:23:00,52.9,39.4,29.97,NE,45,5.8,5.8,60,0.00,CLR,,0.00,WeatherDisplay:10.37,2013-01-13 21:23:00,
2013-01-13 23:24:00,52.9,39.4,29.97,NNE,22,5.8,5.8,60,0.00,CLR,,0.00,WeatherDisplay:10.37,2013-01-13 21:24:00,
2013-01-13 23:25:00,52.9,39.4,29.97,ENE,68,4.6,4.6,60,0.00,CLR,,0.00,WeatherDisplay:10.37,2013-01-13 21:25:00,
2013-01-13 23:27:00,52.9,39.4,29.97,NE,45,6.2,6.2,60,0.00,CLR,,0.00,WeatherDisplay:10.37,2013-01-13 21:27:00,
2013-01-13 23:29:00,52.9,39.4,29.97,ENE,68,6.9,6.9,60,0.00,CLR,,0.00,WeatherDisplay:10.37,2013-01-13 21:29:00,
2013-01-13 23:30:00,52.9,39.4,29.97,NNE,22,6.2,6.2,60,0.00,CLR,,0.00,WeatherDisplay:10.37,2013-01-13 21:30:00,
2013-01-13 23:32:00,52.9,39.4,29.94,NE,45,6.9,6.9,60,0.00,CLR,,0.00,WeatherDisplay:10.37,2013-01-13 21:32:00,
2013-01-13 23:34:00,52.9,39.4,29.94,NE,45,6.9,6.9,60,0.00,CLR,,0.00,WeatherDisplay:10.37,2013-01-13 21:34:00,
2013-01-13 23:35:00,52.9,39.4,29.94,ENE,68,4.6,4.6,60,0.00,CLR,,0.00,WeatherDisplay:10.37,2013-01-13 21:35:00,
2013-01-13 23:37:00,52.9,39.4,29.94,ENE,68,5.8,5.8,60,0.00,CLR,,0.00,WeatherDisplay:10.37,2013-01-13 21:37:00,
2013-01-13 23:39:00,52.9,39.4,29.94,ENE,68,5.9,5.9,60,0.00,CLR,,0.00,WeatherDisplay:10.37,2013-01-13 21:39:00,
2013-01-13 23:41:00,52.9,39.4,29.94,East,90,1.1,1.1,60,0.00,CLR,,0.00,WeatherDisplay:10.37,2013-01-13 21:41:00,
2013-01-13 23:43:00,52.9,39.4,29.94,NE,45,3.6,3.6,60,0.00,CLR,,0.00,WeatherDisplay:10.37,2013-01-13 21:43:00,
2013-01-13 23:44:00,52.7,39.2,29.94,ENE,68,3.5,3.6,60,0.00,CLR,,0.00,WeatherDisplay:10.37,2013-01-13 21:44:00,
2013-01-13 23:45:00,52.7,39.2,29.94,ENE,68,2.3,3.6,60,0.00,CLR,,0.00,WeatherDisplay:10.37,2013-01-13 21:45:00,
2013-01-13 23:46:00,52.7,39.2,29.94,ENE,68,3.6,3.6,60,0.00,CLR,,0.00,WeatherDisplay:10.37,2013-01-13 21:46:00,
2013-01-13 23:48:00,52.7,39.2,29.94,East,90,4.6,4.6,60,0.00,CLR,,0.00,WeatherDisplay:10.37,2013-01-13 21:48:00,
2013-01-13 23:49:00,52.7,39.2,29.94,ENE,68,5.8,5.8,60,0.00,CLR,,0.00,WeatherDisplay:10.37,2013-01-13 21:49:00,
2013-01-13 23:50:00,52.7,39.2,29.94,ENE,68,5.8,5.8,60,0.00,CLR,,0.00,WeatherDisplay:10.37,2013-01-13 21:50:00,
2013-01-13 23:52:00,52.7,39.6,29.94,ENE,68,5.8,5.8,61,0.00,CLR,,0.00,WeatherDisplay:10.37,2013-01-13 21:52:00,
2013-01-13 23:53:00,52.7,39.6,29.94,ENE,68,4.6,4.6,61,0.00,CLR,,0.00,WeatherDisplay:10.37,2013-01-13 21:53:00,
2013-01-13 23:54:00,52.7,39.6,29.94,East,90,3.6,3.6,61,0.00,CLR,,0.00,WeatherDisplay:10.37,2013-01-13 21:54:00,
2013-01-13 23:55:00,52.7,39.6,29.94,East,90,4.6,4.6,61,0.00,CLR,,0.00,WeatherDisplay:10.37,2013-01-13 21:55:00,
2013-01-13 23:57:00,52.5,39.5,29.94,ENE,68,5.8,5.8,61,0.00,CLR,,0.00,WeatherDisplay:10.37,2013-01-13 21:57:00,
2013-01-13 23:58:00,52.5,39.5,29.94,ENE,68,6.2,6.2,61,0.00,CLR,,0.00,WeatherDisplay:10.37,2013-01-13 21:58:00,
2013-01-13 23:59:00,52.5,39.5,29.94,ENE,68,5.8,5.8,61,0.00,CLR,,0.00,WeatherDisplay:10.37,2013-01-13 21:59:00,